Wetterdaten: Samstag, 05.02.2022
Datum Zeit Temp. Aussen Temp. o. S. Temp +5cm Feuchte Auss Luftdruck Regen Sonnenschein Regendauer Solar Windben Empfang
05.02.2022 00:00 3,2 C 2,2 C -0,6 C 92 % 1015,9 hPa 0,0 l/m 0 min 0 min 0 W/m 16,1 km/h (3 Bft) 97,87 %
05.02.2022 00:02 3,2 C 2,2 C -0,6 C 92 % 1015,9 hPa 0,0 l/m 0 min 0 min 0 W/m 19,3 km/h (3 Bft) 95,12 %
05.02.2022 00:04 3,2 C 2,2 C -0,6 C 92 % 1015,8 hPa 0,0 l/m 0 min 0 min 0 W/m 19,3 km/h (3 Bft) 97,87 %
05.02.2022 00:08 3,1 C 2,2 C -0,6 C 92 % 1015,9 hPa 0,0 l/m 0 min 0 min 0 W/m 19,3 km/h (3 Bft) 95,70 %
05.02.2022 00:10 3,1 C 2,2 C -0,6 C 92 % 1015,9 hPa 0,0 l/m 0 min 0 min 0 W/m 22,5 km/h (4 Bft) 95,74 %
05.02.2022 00:12 3,1 C 2,2 C -0,6 C 92 % 1015,9 hPa 0,0 l/m 0 min 0 min 0 W/m 16,1 km/h (3 Bft) 93,62 %
05.02.2022 00:14 3,1 C 2,2 C -0,6 C 92 % 1015,9 hPa 0,0 l/m 0 min 0 min 0 W/m 19,3 km/h (3 Bft) 93,62 %
05.02.2022 00:16 3,1 C 2,2 C -0,6 C 92 % 1015,9 hPa 0,0 l/m 0 min 0 min 0 W/m 16,1 km/h (3 Bft) 95,74 %
05.02.2022 00:18 3,1 C 2,2 C -0,6 C 92 % 1016,0 hPa 0,0 l/m 0 min 0 min 0 W/m 19,3 km/h (3 Bft) 95,74 %
05.02.2022 00:20 3,1 C 2,2 C -0,6 C 92 % 1016,0 hPa 0,0 l/m 0 min 0 min 0 W/m 12,9 km/h (3 Bft) 95,65 %
05.02.2022 00:22 3,1 C 2,2 C 0,0 C 92 % 1016,2 hPa 0,0 l/m 0 min 0 min 0 W/m 19,3 km/h (3 Bft) 95,74 %
05.02.2022 00:24 3,1 C 2,2 C 0,0 C 92 % 1016,1 hPa 0,0 l/m 0 min 0 min 0 W/m 12,9 km/h (3 Bft) 95,74 %
05.02.2022 00:26 3,1 C 2,2 C 0,0 C 92 % 1016,2 hPa 0,0 l/m 0 min 0 min 0 W/m 19,3 km/h (3 Bft) 89,36 %
05.02.2022 00:28 3,1 C 2,2 C 0,0 C 93 % 1016,1 hPa 0,0 l/m 0 min 0 min 0 W/m 16,1 km/h (3 Bft) 93,62 %
05.02.2022 00:30 3,1 C 2,2 C 0,0 C 93 % 1016,2 hPa 0,0 l/m 0 min 0 min 0 W/m 16,1 km/h (3 Bft) 93,62 %
05.02.2022 00:32 3,1 C 2,2 C 0,0 C 93 % 1016,2 hPa 0,0 l/m 0 min 0 min 0 W/m 16,1 km/h (3 Bft) 91,30 %
05.02.2022 00:34 3,2 C 2,2 C 0,0 C 93 % 1016,2 hPa 0,0 l/m 0 min 0 min 0 W/m 9,7 km/h (2 Bft) 93,62 %
05.02.2022 00:36 3,2 C 2,2 C 0,0 C 93 % 1016,2 hPa 0,0 l/m 0 min 0 min 0 W/m 12,9 km/h (3 Bft) 93,62 %
05.02.2022 00:38 3,2 C 2,2 C 0,0 C 93 % 1016,2 hPa 0,0 l/m 0 min 0 min 0 W/m 16,1 km/h (3 Bft) 93,62 %
05.02.2022 00:40 3,2 C 2,2 C 0,0 C 93 % 1016,2 hPa 0,0 l/m 0 min 0 min 0 W/m 19,3 km/h (3 Bft) 93,62 %
05.02.2022 00:42 3,2 C 2,2 C 0,0 C 93 % 1016,3 hPa 0,0 l/m 0 min 0 min 0 W/m 16,1 km/h (3 Bft) 91,49 %
05.02.2022 00:44 3,2 C 2,2 C 0,0 C 93 % 1016,3 hPa 0,0 l/m 0 min 0 min 0 W/m 16,1 km/h (3 Bft) 93,48 %
05.02.2022 00:46 3,2 C 2,2 C 0,0 C 93 % 1016,3 hPa 0,0 l/m 0 min 0 min 0 W/m 12,9 km/h (3 Bft) 93,62 %
05.02.2022 00:48 3,2 C 2,2 C 0,0 C 93 % 1016,3 hPa 0,0 l/m 0 min 0 min 0 W/m 12,9 km/h (3 Bft) 97,87 %
05.02.2022 00:50 3,2 C 2,2 C 0,0 C 93 % 1016,3 hPa 0,0 l/m 0 min 0 min 0 W/m 19,3 km/h (3 Bft) 97,87 %
05.02.2022 00:52 3,2 C 2,2 C 0,0 C 93 % 1016,4 hPa 0,0 l/m 0 min 0 min 0 W/m 19,3 km/h (3 Bft) 95,74 %
05.02.2022 00:54 3,2 C 2,2 C 0,0 C 93 % 1016,3 hPa 0,0 l/m 0 min 0 min 0 W/m 16,1 km/h (3 Bft) 93,62 %
05.02.2022 00:56 3,2 C 2,8 C 0,0 C 93 % 1016,4 hPa 0,0 l/m 0 min 0 min 0 W/m 22,5 km/h (4 Bft) 97,83 %
05.02.2022 00:58 3,2 C 2,8 C 0,0 C 93 % 1016,4 hPa 0,0 l/m 0 min 0 min 0 W/m 16,1 km/h (3 Bft) 100,00 %
05.02.2022 01:00 3,3 C 2,8 C 0,0 C 93 % 1016,4 hPa 0,0 l/m 0 min 0 min 0 W/m 19,3 km/h (3 Bft) 97,87 %
05.02.2022 01:02 3,3 C 2,8 C 0,6 C 93 % 1016,4 hPa 0,0 l/m 0 min 0 min 0 W/m 32,2 km/h (5 Bft) 95,74 %
05.02.2022 01:04 3,3 C 2,8 C 0,6 C 93 % 1016,4 hPa 0,0 l/m 0 min 0 min 0 W/m 19,3 km/h (3 Bft) 100,00 %
05.02.2022 01:06 3,3 C 2,8 C 0,0 C 93 % 1016,4 hPa 0,0 l/m 0 min 0 min 0 W/m 22,5 km/h (4 Bft) 100,00 %
05.02.2022 01:08 3,3 C 2,8 C 0,0 C 93 % 1016,5 hPa 0,0 l/m 0 min 0 min 0 W/m 12,9 km/h (3 Bft) 97,87 %
05.02.2022 01:10 3,3 C 2,8 C 0,0 C 93 % 1016,4 hPa 0,0 l/m 0 min 0 min 0 W/m 16,1 km/h (3 Bft) 100,00 %
05.02.2022 01:12 3,3 C 2,8 C 0,0 C 93 % 1016,4 hPa 0,0 l/m 0 min 0 min 0 W/m 19,3 km/h (3 Bft) 100,00 %
05.02.2022 01:14 3,3 C 2,8 C 0,0 C 93 % 1016,5 hPa 0,0 l/m 0 min 0 min 0 W/m 16,1 km/h (3 Bft) 100,00 %
05.02.2022 01:16 3,3 C 2,8 C 0,0 C 92 % 1016,5 hPa 0,0 l/m 0 min 0 min 0 W/m 12,9 km/h (3 Bft) 95,74 %
05.02.2022 01:18 3,3 C 2,8 C 0,0 C 92 % 1016,5 hPa 0,0 l/m 0 min 0 min 0 W/m 16,1 km/h (3 Bft) 100,00 %
05.02.2022 01:20 3,3 C 2,8 C 0,0 C 92 % 1016,6 hPa 0,0 l/m 0 min 0 min 0 W/m 22,5 km/h (4 Bft) 97,87 %
05.02.2022 01:22 3,3 C 2,8 C 0,6 C 92 % 1016,6 hPa 0,0 l/m 0 min 0 min 0 W/m 12,9 km/h (3 Bft) 93,62 %
05.02.2022 01:24 3,3 C 2,8 C 0,6 C 92 % 1016,7 hPa 0,0 l/m 0 min 0 min 0 W/m 29,0 km/h (5 Bft) 95,74 %
05.02.2022 01:26 3,3 C 2,8 C 0,6 C 92 % 1016,7 hPa 0,0 l/m 0 min 0 min 0 W/m 16,1 km/h (3 Bft) 100,00 %
05.02.2022 01:28 3,3 C 2,8 C 0,6 C 92 % 1016,7 hPa 0,0 l/m 0 min 0 min 0 W/m 16,1 km/h (3 Bft) 100,00 %
05.02.2022 01:30 3,3 C 2,8 C 0,6 C 92 % 1016,8 hPa 0,0 l/m 0 min 0 min 0 W/m 16,1 km/h (3 Bft) 97,83 %
05.02.2022 01:32 3,3 C 2,8 C 0,6 C 92 % 1016,8 hPa 0,0 l/m 0 min 0 min 0 W/m 16,1 km/h (3 Bft) 97,87 %
05.02.2022 01:34 3,3 C 2,8 C 0,6 C 92 % 1016,8 hPa 0,0 l/m 0 min 0 min 0 W/m 19,3 km/h (3 Bft) 100,00 %
05.02.2022 01:36 3,3 C 2,8 C 0,6 C 92 % 1016,9 hPa 0,0 l/m 0 min 0 min 0 W/m 22,5 km/h (4 Bft) 97,87 %
05.02.2022 01:38 3,3 C 2,8 C 0,6 C 92 % 1016,9 hPa 0,0 l/m 0 min 0 min 0 W/m 16,1 km/h (3 Bft) 100,00 %
05.02.2022 01:40 3,3 C 2,8 C 0,6 C 92 % 1016,9 hPa 0,0 l/m 0 min 0 min 0 W/m 22,5 km/h (4 Bft) 100,00 %
05.02.2022 01:42 3,3 C 2,8 C 0,6 C 92 % 1016,9 hPa 0,0 l/m 0 min 0 min 0 W/m 12,9 km/h (3 Bft) 97,83 %
05.02.2022 01:44 3,3 C 2,8 C 0,6 C 92 % 1016,9 hPa 0,0 l/m 0 min 0 min 0 W/m 12,9 km/h (3 Bft) 97,87 %
05.02.2022 01:46 3,3 C 2,8 C 0,6 C 92 % 1017,0 hPa 0,0 l/m 0 min 0 min 0 W/m 19,3 km/h (3 Bft) 100,00 %
05.02.2022 01:48 3,3 C 2,8 C 0,6 C 92 % 1017,1 hPa 0,0 l/m 0 min 0 min 0 W/m 16,1 km/h (3 Bft) 100,00 %
05.02.2022 01:50 3,3 C 2,8 C 0,6 C 92 % 1017,1 hPa 0,0 l/m 0 min 0 min 0 W/m 16,1 km/h (3 Bft) 100,00 %
05.02.2022 01:52 3,3 C 2,8 C 0,6 C 92 % 1017,1 hPa 0,0 l/m 0 min 0 min 0 W/m 19,3 km/h (3 Bft) 100,00 %
05.02.2022 01:54 3,3 C 2,8 C 0,6 C 92 % 1017,1 hPa 0,0 l/m 0 min 0 min 0 W/m 19,3 km/h (3 Bft) 100,00 %
05.02.2022 01:56 3,3 C 2,8 C 0,6 C 92 % 1017,0 hPa 0,0 l/m 0 min 0 min 0 W/m 16,1 km/h (3 Bft) 100,00 %
05.02.2022 01:58 3,3 C 2,8 C 0,6 C 92 % 1017,1 hPa 0,0 l/m 0 min 0 min 0 W/m 19,3 km/h (3 Bft) 97,87 %
05.02.2022 02:00 3,3 C 2,8 C 0,6 C 92 % 1017,1 hPa 0,0 l/m 0 min 0 min 0 W/m 12,9 km/h (3 Bft) 100,00 %
05.02.2022 02:02 3,3 C 2,8 C 0,6 C 92 % 1017,1 hPa 0,0 l/m 0 min 0 min 0 W/m 12,9 km/h (3 Bft) 100,00 %
05.02.2022 02:04 3,3 C 2,8 C 0,6 C 92 % 1017,1 hPa 0,0 l/m 0 min 0 min 0 W/m 19,3 km/h (3 Bft) 100,00 %
05.02.2022 02:06 3,3 C 2,2 C 0,0 C 92 % 1017,1 hPa 0,0 l/m 0 min 0 min 0 W/m 19,3 km/h (3 Bft) 100,00 %
05.02.2022 02:08 3,2 C 2,2 C 0,0 C 92 % 1017,2 hPa 0,0 l/m 0 min 0 min 0 W/m 12,9 km/h (3 Bft) 97,87 %
05.02.2022 02:10 3,2 C 2,2 C 0,0 C 92 % 1017,2 hPa 0,0 l/m 0 min 0 min 0 W/m 12,9 km/h (3 Bft) 100,00 %
05.02.2022 02:12 3,2 C 2,2 C 0,0 C 92 % 1017,3 hPa 0,0 l/m 0 min 0 min 0 W/m 12,9 km/h (3 Bft) 100,00 %
05.02.2022 02:14 3,2 C 2,2 C 0,0 C 92 % 1017,2 hPa 0,0 l/m 0 min 0 min 0 W/m 12,9 km/h (3 Bft) 100,00 %
05.02.2022 02:16 3,2 C 2,2 C 0,0 C 92 % 1017,3 hPa 0,0 l/m 0 min 0 min 0 W/m 12,9 km/h (3 Bft) 100,00 %
05.02.2022 02:18 3,2 C 2,8 C 0,6 C 92 % 1017,3 hPa 0,0 l/m 0 min 0 min 0 W/m 19,3 km/h (3 Bft) 97,83 %
05.02.2022 02:20 3,2 C 2,2 C 0,6 C 92 % 1017,2 hPa 0,0 l/m 0 min 0 min 0 W/m 12,9 km/h (3 Bft) 97,87 %
05.02.2022 02:22 3,2 C 2,2 C 0,6 C 92 % 1017,3 hPa 0,0 l/m 0 min 0 min 0 W/m 12,9 km/h (3 Bft) 95,74 %
05.02.2022 02:24 3,2 C 2,2 C 0,6 C 92 % 1017,3 hPa 0,0 l/m 0 min 0 min 0 W/m 19,3 km/h (3 Bft) 97,87 %
05.02.2022 02:26 3,2 C 2,2 C 0,0 C 92 % 1017,3 hPa 0,0 l/m 0 min 0 min 0 W/m 12,9 km/h (3 Bft) 97,87 %
05.02.2022 02:28 3,2 C 2,2 C 0,0 C 92 % 1017,3 hPa 0,0 l/m 0 min 0 min 0 W/m 16,1 km/h (3 Bft) 97,87 %
05.02.2022 02:30 3,2 C 2,2 C 0,0 C 92 % 1017,4 hPa 0,0 l/m 0 min 0 min 0 W/m 12,9 km/h (3 Bft) 95,65 %
05.02.2022 02:32 3,2 C 2,2 C 0,0 C 92 % 1017,4 hPa 0,0 l/m 0 min 0 min 0 W/m 16,1 km/h (3 Bft) 95,74 %
05.02.2022 02:34 3,2 C 2,2 C 0,0 C 92 % 1017,4 hPa 0,0 l/m 0 min 0 min 0 W/m 25,7 km/h (4 Bft) 95,74 %
05.02.2022 02:36 3,2 C 2,2 C 0,6 C 92 % 1017,4 hPa 0,0 l/m 0 min 0 min 0 W/m 16,1 km/h (3 Bft) 93,62 %
05.02.2022 02:38 3,2 C 2,2 C 0,0 C 92 % 1017,4 hPa 0,0 l/m 0 min 0 min 0 W/m 12,9 km/h (3 Bft) 95,74 %
05.02.2022 02:40 3,2 C 2,2 C 0,0 C 92 % 1017,5 hPa 0,0 l/m 0 min 0 min 0 W/m 16,1 km/h (3 Bft) 93,62 %
05.02.2022 02:42 3,2 C 2,2 C 0,0 C 92 % 1017,5 hPa 0,0 l/m 0 min 0 min 0 W/m 9,7 km/h (2 Bft) 95,65 %
05.02.2022 02:44 3,2 C 2,2 C 0,0 C 92 % 1017,6 hPa 0,0 l/m 0 min 0 min 0 W/m 9,7 km/h (2 Bft) 95,74 %
05.02.2022 02:46 3,2 C 2,2 C 0,0 C 92 % 1017,6 hPa 0,0 l/m 0 min 0 min 0 W/m 9,7 km/h (2 Bft) 95,74 %
05.02.2022 02:48 3,1 C 2,2 C 0,0 C 92 % 1017,7 hPa 0,0 l/m 0 min 0 min 0 W/m 16,1 km/h (3 Bft) 91,49 %
05.02.2022 02:50 3,1 C 2,2 C 0,0 C 92 % 1017,8 hPa 0,0 l/m 0 min 0 min 0 W/m 12,9 km/h (3 Bft) 97,87 %
05.02.2022 02:52 3,2 C 2,2 C 0,6 C 92 % 1017,7 hPa 0,0 l/m 0 min 0 min 0 W/m 16,1 km/h (3 Bft) 97,87 %
05.02.2022 02:54 3,2 C 2,8 C 0,6 C 92 % 1017,8 hPa 0,0 l/m 0 min 0 min 0 W/m 12,9 km/h (3 Bft) 97,67 %
05.02.2022 02:56 3,2 C 2,8 C 0,6 C 92 % 1017,7 hPa 0,0 l/m 0 min 0 min 0 W/m 16,1 km/h (3 Bft) 97,87 %
05.02.2022 02:58 3,2 C 2,8 C 0,6 C 92 % 1017,7 hPa 0,0 l/m 0 min 0 min 0 W/m 16,1 km/h (3 Bft) 97,87 %
05.02.2022 03:00 3,2 C 2,2 C 0,6 C 92 % 1017,7 hPa 0,0 l/m 0 min 0 min 0 W/m 12,9 km/h (3 Bft) 95,65 %
05.02.2022 03:02 3,2 C 2,2 C 0,6 C 92 % 1017,7 hPa 0,0 l/m 0 min 0 min 0 W/m 16,1 km/h (3 Bft) 95,74 %
05.02.2022 03:04 3,2 C 2,2 C 0,6 C 92 % 1017,8 hPa 0,0 l/m 0 min 0 min 0 W/m 12,9 km/h (3 Bft) 95,74 %
05.02.2022 03:06 3,2 C 2,2 C 0,6 C 92 % 1017,8 hPa 0,0 l/m 0 min 0 min 0 W/m 16,1 km/h (3 Bft) 97,87 %
05.02.2022 03:08 3,2 C 2,2 C 0,6 C 92 % 1017,9 hPa 0,0 l/m 0 min 0 min 0 W/m 16,1 km/h (3 Bft) 95,74 %
05.02.2022 03:10 3,2 C 2,2 C 0,6 C 92 % 1017,9 hPa 0,0 l/m 0 min 0 min 0 W/m 16,1 km/h (3 Bft) 97,87 %
05.02.2022 03:12 3,2 C 2,2 C 0,0 C 92 % 1017,9 hPa 0,0 l/m 0 min 0 min 0 W/m 12,9 km/h (3 Bft) 97,87 %
05.02.2022 03:14 3,2 C 2,2 C 0,6 C 92 % 1017,9 hPa 0,0 l/m 0 min 0 min 0 W/m 12,9 km/h (3 Bft) 97,83 %
05.02.2022 03:16 3,2 C 2,2 C 0,0 C 92 % 1017,9 hPa 0,0 l/m 0 min 0 min 0 W/m 22,5 km/h (4 Bft) 95,74 %
05.02.2022 03:18 3,2 C 2,2 C 0,0 C 92 % 1017,9 hPa 0,0 l/m 0 min 0 min 0 W/m 12,9 km/h (3 Bft) 95,74 %
05.02.2022 03:20 3,2 C 2,2 C 0,0 C 92 % 1017,9 hPa 0,0 l/m 0 min 0 min 0 W/m 16,1 km/h (3 Bft) 95,74 %
05.02.2022 03:22 3,1 C 2,2 C 0,0 C 92 % 1017,8 hPa 0,0 l/m 0 min 0 min 0 W/m 19,3 km/h (3 Bft) 97,87 %
05.02.2022 03:24 3,1 C 2,2 C 0,0 C 92 % 1017,9 hPa 0,0 l/m 0 min 0 min 0 W/m 16,1 km/h (3 Bft) 97,83 %
05.02.2022 03:26 3,1 C 2,2 C 0,0 C 92 % 1017,9 hPa 0,0 l/m 0 min 0 min 0 W/m 12,9 km/h (3 Bft) 95,74 %
05.02.2022 03:28 3,1 C 2,2 C 0,0 C 92 % 1017,9 hPa 0,0 l/m 0 min 0 min 0 W/m 16,1 km/h (3 Bft) 97,87 %
05.02.2022 03:30 3,1 C 2,2 C 0,0 C 92 % 1017,9 hPa 0,0 l/m 0 min 0 min 0 W/m 16,1 km/h (3 Bft) 97,87 %
05.02.2022 03:32 3,1 C 2,2 C 0,0 C 92 % 1018,0 hPa 0,0 l/m 0 min 0 min 0 W/m 9,7 km/h (2 Bft) 97,87 %
05.02.2022 03:34 3,1 C 2,2 C 0,0 C 92 % 1017,9 hPa 0,0 l/m 0 min 0 min 0 W/m 16,1 km/h (3 Bft) 97,87 %
05.02.2022 03:36 3,1 C 2,2 C 0,0 C 92 % 1018,1 hPa 0,0 l/m 0 min 0 min 0 W/m 22,5 km/h (4 Bft) 97,83 %
05.02.2022 03:38 3,1 C 2,2 C 0,0 C 92 % 1018,2 hPa 0,0 l/m 0 min 0 min 0 W/m 19,3 km/h (3 Bft) 93,62 %
05.02.2022 03:40 3,1 C 2,2 C 0,0 C 92 % 1018,1 hPa 0,0 l/m 0 min 0 min 0 W/m 12,9 km/h (3 Bft) 95,74 %
05.02.2022 03:42 3,1 C 2,2 C 0,0 C 92 % 1018,2 hPa 0,0 l/m 0 min 0 min 0 W/m 12,9 km/h (3 Bft) 97,87 %
05.02.2022 03:44 3,1 C 2,2 C 0,0 C 92 % 1018,2 hPa 0,0 l/m 0 min 0 min 0 W/m 16,1 km/h (3 Bft) 95,74 %
05.02.2022 03:46 3,1 C 2,2 C 0,0 C 92 % 1018,2 hPa 0,0 l/m 0 min 0 min 0 W/m 9,7 km/h (2 Bft) 97,87 %
05.02.2022 03:48 3,1 C 2,2 C 0,0 C 92 % 1018,2 hPa 0,0 l/m 0 min 0 min 0 W/m 12,9 km/h (3 Bft) 97,83 %
05.02.2022 03:50 3,1 C 2,2 C 0,0 C 92 % 1018,3 hPa 0,0 l/m 0 min 0 min 0 W/m 16,1 km/h (3 Bft) 97,87 %
05.02.2022 03:52 3,1 C 2,2 C 0,6 C 92 % 1018,3 hPa 0,0 l/m 0 min 0 min 0 W/m 16,1 km/h (3 Bft) 97,87 %
05.02.2022 03:54 3,1 C 2,2 C 0,6 C 92 % 1018,3 hPa 0,0 l/m 0 min 0 min 0 W/m 12,9 km/h (3 Bft) 97,87 %
05.02.2022 03:56 3,1 C 2,2 C 0,0 C 92 % 1018,4 hPa 0,0 l/m 0 min 0 min 0 W/m 16,1 km/h (3 Bft) 100,00 %
05.02.2022 03:58 3,1 C 2,2 C 0,0 C 92 % 1018,3 hPa 0,0 l/m 0 min 0 min 0 W/m 16,1 km/h (3 Bft) 100,00 %
05.02.2022 04:00 3,1 C 2,2 C 0,6 C 92 % 1018,3 hPa 0,0 l/m 0 min 0 min 0 W/m 16,1 km/h (3 Bft) 100,00 %
05.02.2022 04:02 3,1 C 2,2 C 0,6 C 92 % 1018,4 hPa 0,0 l/m 0 min 0 min 0 W/m 12,9 km/h (3 Bft) 92,31 %
05.02.2022 04:04 3,1 C 2,2 C 0,0 C 92 % 1018,4 hPa 0,0 l/m 0 min 0 min 0 W/m 9,7 km/h (2 Bft) 95,65 %
05.02.2022 04:06 3,1 C 2,2 C 0,0 C 92 % 1018,4 hPa 0,0 l/m 0 min 0 min 0 W/m 22,5 km/h (4 Bft) 100,00 %
05.02.2022 04:08 3,1 C 2,2 C 0,0 C 92 % 1018,4 hPa 0,0 l/m 0 min 0 min 0 W/m 12,9 km/h (3 Bft) 97,87 %
05.02.2022 04:10 3,1 C 2,2 C 0,0 C 92 % 1018,4 hPa 0,0 l/m 0 min 0 min 0 W/m 12,9 km/h (3 Bft) 97,87 %
05.02.2022 04:12 3,1 C 2,2 C 0,0 C 92 % 1018,4 hPa 0,0 l/m 0 min 0 min 0 W/m 16,1 km/h (3 Bft) 97,87 %
05.02.2022 04:14 3,1 C 2,2 C 0,0 C 92 % 1018,4 hPa 0,0 l/m 0 min 0 min 0 W/m 25,7 km/h (4 Bft) 95,74 %
05.02.2022 04:16 3,1 C 2,2 C 0,0 C 91 % 1018,5 hPa 0,0 l/m 0 min 0 min 0 W/m 12,9 km/h (3 Bft) 95,65 %
05.02.2022 04:18 3,1 C 2,2 C 0,0 C 91 % 1018,6 hPa 0,0 l/m 0 min 0 min 0 W/m 12,9 km/h (3 Bft) 97,87 %
05.02.2022 04:20 3,1 C 2,2 C 0,0 C 91 % 1018,6 hPa 0,0 l/m 0 min 0 min 0 W/m 12,9 km/h (3 Bft) 97,87 %
05.02.2022 04:22 3,1 C 2,2 C 0,0 C 91 % 1018,5 hPa 0,0 l/m 0 min 0 min 0 W/m 19,3 km/h (3 Bft) 97,87 %
05.02.2022 04:24 3,1 C 2,2 C 0,0 C 91 % 1018,5 hPa 0,0 l/m 0 min 0 min 0 W/m 19,3 km/h (3 Bft) 95,74 %
05.02.2022 04:26 3,1 C 2,2 C 0,0 C 91 % 1018,5 hPa 0,0 l/m 0 min 0 min 0 W/m 19,3 km/h (3 Bft) 97,87 %
05.02.2022 04:28 3,1 C 2,2 C 0,0 C 91 % 1018,6 hPa 0,0 l/m 0 min 0 min 0 W/m 16,1 km/h (3 Bft) 97,83 %
05.02.2022 04:30 3,1 C 2,2 C 0,0 C 91 % 1018,6 hPa 0,0 l/m 0 min 0 min 0 W/m 12,9 km/h (3 Bft) 97,87 %
05.02.2022 04:32 3,1 C 2,2 C 0,0 C 91 % 1018,7 hPa 0,0 l/m 0 min 0 min 0 W/m 19,3 km/h (3 Bft) 95,74 %
05.02.2022 04:34 3,0 C 2,2 C 0,0 C 91 % 1018,6 hPa 0,0 l/m 0 min 0 min 0 W/m 12,9 km/h (3 Bft) 97,87 %
05.02.2022 04:36 3,0 C 2,2 C 0,0 C 91 % 1018,7 hPa 0,0 l/m 0 min 0 min 0 W/m 12,9 km/h (3 Bft) 97,87 %
05.02.2022 04:38 3,0 C 2,2 C 0,0 C 91 % 1018,7 hPa 0,0 l/m 0 min 0 min 0 W/m 22,5 km/h (4 Bft) 97,87 %
05.02.2022 04:40 3,0 C 2,2 C 0,0 C 91 % 1018,7 hPa 0,0 l/m 0 min 0 min 0 W/m 16,1 km/h (3 Bft) 95,65 %
05.02.2022 04:42 3,1 C 2,2 C 0,0 C 91 % 1018,6 hPa 0,0 l/m 0 min 0 min 0 W/m 16,1 km/h (3 Bft) 97,87 %
05.02.2022 04:44 3,0 C 2,2 C 0,0 C 91 % 1018,7 hPa 0,0 l/m 0 min 0 min 0 W/m 12,9 km/h (3 Bft) 100,00 %
05.02.2022 04:46 3,1 C 2,2 C 0,0 C 91 % 1018,7 hPa 0,0 l/m 0 min 0 min 0 W/m 12,9 km/h (3 Bft) 100,00 %
05.02.2022 04:48 3,1 C 2,2 C 0,0 C 91 % 1018,8 hPa 0,0 l/m 0 min 0 min 0 W/m 16,1 km/h (3 Bft) 95,74 %
05.02.2022 04:50 3,1 C 2,2 C 0,0 C 91 % 1018,8 hPa 0,0 l/m 0 min 0 min 0 W/m 16,1 km/h (3 Bft) 100,00 %
05.02.2022 04:52 3,1 C 2,2 C 0,0 C 91 % 1018,8 hPa 0,0 l/m 0 min 0 min 0 W/m 32,2 km/h (5 Bft) 95,65 %
05.02.2022 04:54 3,1 C 2,2 C 0,0 C 91 % 1018,9 hPa 0,0 l/m 0 min 0 min 0 W/m 19,3 km/h (3 Bft) 97,87 %
05.02.2022 04:56 3,1 C 2,2 C 0,0 C 91 % 1018,9 hPa 0,0 l/m 0 min 0 min 0 W/m 16,1 km/h (3 Bft) 97,87 %
05.02.2022 04:58 3,1 C 2,2 C 0,0 C 91 % 1018,9 hPa 0,0 l/m 0 min 0 min 0 W/m 16,1 km/h (3 Bft) 95,74 %
05.02.2022 05:00 3,1 C 2,2 C 0,0 C 91 % 1019,0 hPa 0,0 l/m 0 min 0 min 0 W/m 12,9 km/h (3 Bft) 97,87 %
05.02.2022 05:02 3,1 C 2,2 C 0,0 C 91 % 1019,0 hPa 0,0 l/m 0 min 0 min 0 W/m 16,1 km/h (3 Bft) 97,83 %
05.02.2022 05:04 3,1 C 2,2 C 0,0 C 91 % 1019,0 hPa 0,0 l/m 0 min 0 min 0 W/m 12,9 km/h (3 Bft) 97,87 %
05.02.2022 05:06 3,1 C 2,2 C 0,0 C 91 % 1019,1 hPa 0,0 l/m 0 min 0 min 0 W/m 19,3 km/h (3 Bft) 97,87 %
05.02.2022 05:08 3,1 C 2,2 C 0,6 C 91 % 1019,0 hPa 0,0 l/m 0 min 0 min 0 W/m 22,5 km/h (4 Bft) 95,74 %
05.02.2022 05:10 3,1 C 2,2 C 0,6 C 91 % 1019,0 hPa 0,0 l/m 0 min 0 min 0 W/m 16,1 km/h (3 Bft) 97,87 %
05.02.2022 05:12 3,1 C 2,8 C 0,6 C 91 % 1019,1 hPa 0,0 l/m 0 min 0 min 0 W/m 12,9 km/h (3 Bft) 95,74 %
05.02.2022 05:14 3,1 C 2,8 C 0,6 C 91 % 1019,0 hPa 0,0 l/m 0 min 0 min 0 W/m 12,9 km/h (3 Bft) 97,83 %
05.02.2022 05:16 3,1 C 2,2 C 0,6 C 91 % 1019,0 hPa 0,0 l/m 0 min 0 min 0 W/m 12,9 km/h (3 Bft) 95,74 %
05.02.2022 05:18 3,1 C 2,2 C 0,6 C 91 % 1019,1 hPa 0,0 l/m 0 min 0 min 0 W/m 19,3 km/h (3 Bft) 97,87 %
05.02.2022 05:20 3,1 C 2,2 C 0,6 C 91 % 1019,1 hPa 0,0 l/m 0 min 0 min 0 W/m 19,3 km/h (3 Bft) 95,74 %
05.02.2022 05:22 3,1 C 2,2 C 0,0 C 91 % 1019,1 hPa 0,0 l/m 0 min 0 min 0 W/m 12,9 km/h (3 Bft) 68,09 %
05.02.2022 05:24 3,1 C 2,2 C 0,0 C 91 % 1019,1 hPa 0,0 l/m 0 min 0 min 0 W/m 16,1 km/h (3 Bft) 84,09 %
05.02.2022 05:26 3,1 C 2,2 C 0,0 C 91 % 1019,1 hPa 0,0 l/m 0 min 0 min 0 W/m 12,9 km/h (3 Bft) 97,83 %
05.02.2022 05:28 3,1 C 2,2 C 0,0 C 91 % 1019,1 hPa 0,0 l/m 0 min 0 min 0 W/m 16,1 km/h (3 Bft) 95,74 %
05.02.2022 05:30 3,0 C 2,2 C 0,0 C 91 % 1019,1 hPa 0,0 l/m 0 min 0 min 0 W/m 16,1 km/h (3 Bft) 100,00 %
05.02.2022 05:32 3,0 C 2,2 C 0,0 C 91 % 1019,1 hPa 0,0 l/m 0 min 0 min 0 W/m 9,7 km/h (2 Bft) 100,00 %
05.02.2022 05:34 2,9 C 2,2 C 0,0 C 91 % 1019,1 hPa 0,0 l/m 0 min 0 min 0 W/m 16,1 km/h (3 Bft) 100,00 %
05.02.2022 05:36 2,9 C 2,2 C 0,0 C 91 % 1019,1 hPa 0,0 l/m 0 min 0 min 0 W/m 12,9 km/h (3 Bft) 100,00 %
05.02.2022 05:38 2,9 C 2,2 C 0,0 C 91 % 1019,2 hPa 0,0 l/m 0 min 0 min 0 W/m 16,1 km/h (3 Bft) 100,00 %
05.02.2022 05:40 2,9 C 2,2 C 0,0 C 91 % 1019,1 hPa 0,0 l/m 0 min 0 min 0 W/m 9,7 km/h (2 Bft) 97,87 %
05.02.2022 05:42 2,8 C 2,2 C 0,0 C 91 % 1019,2 hPa 0,0 l/m 0 min 0 min 0 W/m 16,1 km/h (3 Bft) 100,00 %
05.02.2022 05:44 2,8 C 2,2 C 0,0 C 91 % 1019,2 hPa 0,0 l/m 0 min 0 min 0 W/m 12,9 km/h (3 Bft) 100,00 %
05.02.2022 05:46 2,8 C 1,7 C 0,0 C 91 % 1019,2 hPa 0,0 l/m 0 min 0 min 0 W/m 16,1 km/h (3 Bft) 100,00 %
05.02.2022 05:48 2,8 C 1,7 C 0,0 C 91 % 1019,2 hPa 0,0 l/m 0 min 0 min 0 W/m 9,7 km/h (2 Bft) 100,00 %
05.02.2022 05:50 2,7 C 1,7 C 0,0 C 91 % 1019,2 hPa 0,0 l/m 0 min 0 min 0 W/m 12,9 km/h (3 Bft) 100,00 %
05.02.2022 05:52 2,7 C 1,7 C 0,0 C 91 % 1019,2 hPa 0,0 l/m 0 min 0 min 0 W/m 12,9 km/h (3 Bft) 100,00 %
05.02.2022 05:54 2,7 C 2,2 C 0,0 C 91 % 1019,2 hPa 0,0 l/m 0 min 0 min 0 W/m 16,1 km/h (3 Bft) 97,87 %
05.02.2022 05:56 2,7 C 1,7 C 0,0 C 92 % 1019,2 hPa 0,0 l/m 0 min 0 min 0 W/m 16,1 km/h (3 Bft) 97,87 %
05.02.2022 05:58 2,7 C 2,2 C 0,0 C 92 % 1019,2 hPa 0,0 l/m 0 min 0 min 0 W/m 22,5 km/h (4 Bft) 97,87 %
05.02.2022 06:00 2,7 C 2,2 C 0,0 C 92 % 1019,3 hPa 0,0 l/m 0 min 0 min 0 W/m 16,1 km/h (3 Bft) 97,87 %
05.02.2022 06:02 2,7 C 2,2 C 0,0 C 92 % 1019,4 hPa 0,0 l/m 0 min 0 min 0 W/m 12,9 km/h (3 Bft) 100,00 %
05.02.2022 06:04 2,7 C 1,7 C 0,0 C 91 % 1019,4 hPa 0,0 l/m 0 min 0 min 0 W/m 9,7 km/h (2 Bft) 97,87 %
05.02.2022 06:08 2,7 C 1,7 C -0,6 C 91 % 1019,4 hPa 0,0 l/m 0 min 0 min 0 W/m 16,1 km/h (3 Bft) 96,81 %
05.02.2022 06:10 2,6 C 1,7 C -0,6 C 91 % 1019,3 hPa 0,0 l/m 0 min 0 min 0 W/m 9,7 km/h (2 Bft) 97,87 %
05.02.2022 06:12 2,6 C 1,7 C -0,6 C 91 % 1019,4 hPa 0,0 l/m 0 min 0 min 0 W/m 12,9 km/h (3 Bft) 95,74 %
05.02.2022 06:14 2,6 C 1,7 C -0,6 C 92 % 1019,4 hPa 0,0 l/m 0 min 0 min 0 W/m 19,3 km/h (3 Bft) 95,65 %
05.02.2022 06:16 2,6 C 1,7 C -0,6 C 92 % 1019,5 hPa 0,0 l/m 0 min 0 min 0 W/m 12,9 km/h (3 Bft) 95,74 %
05.02.2022 06:18 2,6 C 1,7 C -0,6 C 92 % 1019,5 hPa 0,0 l/m 0 min 0 min 0 W/m 22,5 km/h (4 Bft) 95,74 %
05.02.2022 06:20 2,6 C 1,7 C 0,0 C 92 % 1019,6 hPa 0,0 l/m 0 min 0 min 0 W/m 19,3 km/h (3 Bft) 95,74 %
05.02.2022 06:22 2,6 C 1,7 C 0,0 C 92 % 1019,6 hPa 0,0 l/m 0 min 0 min 0 W/m 9,7 km/h (2 Bft) 95,74 %
05.02.2022 06:24 2,6 C 1,7 C 0,0 C 92 % 1019,6 hPa 0,0 l/m 0 min 0 min 0 W/m 9,7 km/h (2 Bft) 95,74 %
05.02.2022 06:26 2,6 C 1,7 C 0,0 C 92 % 1019,6 hPa 0,0 l/m 0 min 0 min 0 W/m 19,3 km/h (3 Bft) 95,65 %
05.02.2022 06:28 2,6 C 1,7 C 0,0 C 92 % 1019,6 hPa 0,0 l/m 0 min 0 min 0 W/m 9,7 km/h (2 Bft) 100,00 %
05.02.2022 06:30 2,6 C 1,7 C 0,0 C 92 % 1019,6 hPa 0,0 l/m 0 min 0 min 0 W/m 6,4 km/h (2 Bft) 95,74 %
05.02.2022 06:32 2,6 C 1,7 C 0,0 C 92 % 1019,6 hPa 0,0 l/m 0 min 0 min 0 W/m 19,3 km/h (3 Bft) 95,74 %
05.02.2022 06:34 2,6 C 1,7 C 0,0 C 92 % 1019,6 hPa 0,0 l/m 0 min 0 min 0 W/m 12,9 km/h (3 Bft) 97,87 %
05.02.2022 06:36 2,6 C 2,2 C 0,0 C 92 % 1019,7 hPa 0,0 l/m 0 min 0 min 0 W/m 16,1 km/h (3 Bft) 100,00 %
05.02.2022 06:38 2,6 C 2,2 C 0,0 C 92 % 1019,7 hPa 0,0 l/m 0 min 0 min 0 W/m 6,4 km/h (2 Bft) 95,74 %
05.02.2022 06:40 2,6 C 2,2 C 0,0 C 92 % 1019,7 hPa 0,0 l/m 0 min 0 min 0 W/m 12,9 km/h (3 Bft) 95,74 %
05.02.2022 06:42 2,6 C 2,2 C 0,0 C 92 % 1019,7 hPa 0,0 l/m 0 min 0 min 0 W/m 12,9 km/h (3 Bft) 97,87 %
05.02.2022 06:44 2,6 C 2,2 C 0,0 C 92 % 1019,7 hPa 0,0 l/m 0 min 0 min 0 W/m 12,9 km/h (3 Bft) 95,74 %
05.02.2022 06:46 2,6 C 2,2 C 0,0 C 92 % 1019,7 hPa 0,0 l/m 0 min 0 min 0 W/m 6,4 km/h (2 Bft) 95,74 %
05.02.2022 06:48 2,6 C 2,2 C 0,0 C 92 % 1019,7 hPa 0,0 l/m 0 min 0 min 0 W/m 12,9 km/h (3 Bft) 97,87 %
05.02.2022 06:50 2,6 C 2,2 C 0,0 C 92 % 1019,8 hPa 0,0 l/m 0 min 0 min 0 W/m 12,9 km/h (3 Bft) 97,83 %
05.02.2022 06:52 2,6 C 2,2 C 0,0 C 92 % 1019,8 hPa 0,0 l/m 0 min 0 min 0 W/m 12,9 km/h (3 Bft) 97,87 %
05.02.2022 06:54 2,6 C 2,2 C 0,0 C 92 % 1019,8 hPa 0,0 l/m 0 min 0 min 0 W/m 12,9 km/h (3 Bft) 97,87 %
05.02.2022 06:56 2,6 C 1,7 C 0,0 C 92 % 1019,8 hPa 0,0 l/m 0 min 0 min 0 W/m 9,7 km/h (2 Bft) 95,74 %
05.02.2022 06:58 2,6 C 1,7 C 0,0 C 92 % 1019,9 hPa 0,0 l/m 0 min 0 min 0 W/m 6,4 km/h (2 Bft) 97,87 %
05.02.2022 07:00 2,6 C 1,7 C 0,0 C 92 % 1019,9 hPa 0,0 l/m 0 min 0 min 0 W/m 22,5 km/h (4 Bft) 100,00 %
05.02.2022 07:02 2,6 C 2,2 C 0,0 C 92 % 1019,9 hPa 0,0 l/m 0 min 0 min 0 W/m 19,3 km/h (3 Bft) 95,74 %
05.02.2022 07:04 2,6 C 2,2 C 0,0 C 92 % 1020,0 hPa 0,0 l/m 0 min 0 min 0 W/m 9,7 km/h (2 Bft) 100,00 %
05.02.2022 07:06 2,6 C 2,2 C 0,0 C 92 % 1020,0 hPa 0,0 l/m 0 min 0 min 0 W/m 16,1 km/h (3 Bft) 93,62 %
05.02.2022 07:08 2,6 C 2,2 C 0,0 C 92 % 1020,0 hPa 0,0 l/m 0 min 0 min 0 W/m 16,1 km/h (3 Bft) 97,87 %
05.02.2022 07:10 2,6 C 2,2 C 0,0 C 92 % 1019,9 hPa 0,0 l/m 0 min 0 min 0 W/m 19,3 km/h (3 Bft) 97,87 %
05.02.2022 07:12 2,6 C 2,2 C 0,0 C 92 % 1019,9 hPa 0,0 l/m 0 min 0 min 0 W/m 12,9 km/h (3 Bft) 100,00 %
05.02.2022 07:14 2,6 C 1,7 C 0,0 C 92 % 1019,9 hPa 0,0 l/m 0 min 0 min 0 W/m 12,9 km/h (3 Bft) 97,87 %
05.02.2022 07:16 2,6 C 1,7 C 0,0 C 92 % 1020,0 hPa 0,0 l/m 0 min 0 min 0 W/m 12,9 km/h (3 Bft) 95,74 %
05.02.2022 07:18 2,6 C 1,7 C 0,0 C 92 % 1020,0 hPa 0,0 l/m 0 min 0 min 0 W/m 16,1 km/h (3 Bft) 97,87 %
05.02.2022 07:20 2,6 C 1,7 C 0,0 C 92 % 1020,0 hPa 0,0 l/m 0 min 0 min 0 W/m 12,9 km/h (3 Bft) 97,87 %
05.02.2022 07:22 2,6 C 1,7 C 0,0 C 92 % 1020,0 hPa 0,0 l/m 0 min 0 min 0 W/m 12,9 km/h (3 Bft) 97,87 %
05.02.2022 07:24 2,6 C 1,7 C 0,0 C 92 % 1020,0 hPa 0,0 l/m 0 min 0 min 0 W/m 12,9 km/h (3 Bft) 97,83 %
05.02.2022 07:26 2,6 C 1,7 C -0,6 C 92 % 1020,1 hPa 0,0 l/m 0 min 0 min 0 W/m 16,1 km/h (3 Bft) 93,62 %
05.02.2022 07:28 2,6 C 1,7 C -0,6 C 92 % 1020,2 hPa 0,0 l/m 0 min 0 min 0 W/m 12,9 km/h (3 Bft) 97,87 %
05.02.2022 07:30 2,5 C 1,7 C -0,6 C 92 % 1020,2 hPa 0,0 l/m 0 min 0 min 0 W/m 12,9 km/h (3 Bft) 97,87 %
05.02.2022 07:32 2,5 C 1,7 C -0,6 C 92 % 1020,2 hPa 0,0 l/m 0 min 0 min 0 W/m 3,2 km/h (1 Bft) 95,74 %
05.02.2022 07:34 2,4 C 1,7 C -0,6 C 92 % 1020,3 hPa 0,0 l/m 0 min 0 min 0 W/m 9,7 km/h (2 Bft) 95,74 %
05.02.2022 07:36 2,4 C 1,7 C -0,6 C 92 % 1020,3 hPa 0,0 l/m 0 min 0 min 0 W/m 12,9 km/h (3 Bft) 97,83 %
05.02.2022 07:38 2,4 C 1,7 C -0,6 C 92 % 1020,2 hPa 0,0 l/m 0 min 0 min 0 W/m 12,9 km/h (3 Bft) 97,87 %
05.02.2022 07:40 2,4 C 1,7 C -0,6 C 92 % 1020,3 hPa 0,0 l/m 0 min 0 min 0 W/m 9,7 km/h (2 Bft) 97,87 %
05.02.2022 07:42 2,4 C 1,7 C -0,6 C 92 % 1020,3 hPa 0,0 l/m 0 min 0 min 0 W/m 9,7 km/h (2 Bft) 97,87 %
05.02.2022 07:44 2,4 C 1,7 C -0,6 C 92 % 1020,3 hPa 0,0 l/m 0 min 0 min 0 W/m 6,4 km/h (2 Bft) 97,87 %
05.02.2022 07:46 2,4 C 1,7 C -0,6 C 92 % 1020,3 hPa 0,0 l/m 0 min 0 min 0 W/m 12,9 km/h (3 Bft) 97,87 %
05.02.2022 07:48 2,3 C 1,7 C -0,6 C 92 % 1020,3 hPa 0,0 l/m 0 min 0 min 0 W/m 12,9 km/h (3 Bft) 95,65 %
05.02.2022 07:50 2,3 C 1,7 C -0,6 C 92 % 1020,3 hPa 0,0 l/m 0 min 0 min 0 W/m 6,4 km/h (2 Bft) 97,87 %
05.02.2022 07:52 2,3 C 1,7 C -0,6 C 92 % 1020,3 hPa 0,0 l/m 0 min 0 min 0 W/m 6,4 km/h (2 Bft) 97,87 %
05.02.2022 07:54 2,3 C 1,7 C -0,6 C 92 % 1020,3 hPa 0,0 l/m 0 min 0 min 0 W/m 12,9 km/h (3 Bft) 95,74 %
05.02.2022 07:56 2,3 C 1,7 C -0,6 C 92 % 1020,3 hPa 0,0 l/m 0 min 0 min 0 W/m 16,1 km/h (3 Bft) 95,74 %
05.02.2022 07:58 2,3 C 1,1 C -0,6 C 92 % 1020,4 hPa 0,0 l/m 0 min 0 min 0 W/m 16,1 km/h (3 Bft) 97,87 %
05.02.2022 08:00 2,3 C 1,1 C -0,6 C 92 % 1020,4 hPa 0,0 l/m 0 min 0 min 0 W/m 6,4 km/h (2 Bft) 97,83 %
05.02.2022 08:02 2,3 C 1,1 C -0,6 C 92 % 1020,4 hPa 0,0 l/m 0 min 0 min 0 W/m 6,4 km/h (2 Bft) 97,87 %
05.02.2022 08:04 2,3 C 1,7 C -0,6 C 92 % 1020,5 hPa 0,0 l/m 0 min 0 min 0 W/m 12,9 km/h (3 Bft) 97,87 %
05.02.2022 08:06 2,3 C 1,7 C -0,6 C 92 % 1020,6 hPa 0,0 l/m 0 min 0 min 2 W/m 6,4 km/h (2 Bft) 95,74 %
05.02.2022 08:08 2,3 C 1,7 C -0,6 C 92 % 1020,6 hPa 0,0 l/m 0 min 0 min 5 W/m 6,4 km/h (2 Bft) 97,87 %
05.02.2022 08:10 2,3 C 1,7 C -0,6 C 93 % 1020,6 hPa 0,0 l/m 0 min 0 min 5 W/m 9,7 km/h (2 Bft) 97,83 %
05.02.2022 08:12 2,2 C 1,7 C -0,6 C 93 % 1020,6 hPa 0,0 l/m 0 min 0 min 5 W/m 9,7 km/h (2 Bft) 97,87 %
05.02.2022 08:14 2,2 C 1,7 C -0,6 C 93 % 1020,6 hPa 0,0 l/m 0 min 0 min 7 W/m 12,9 km/h (3 Bft) 97,87 %
05.02.2022 08:16 2,2 C 1,1 C -0,6 C 93 % 1020,6 hPa 0,0 l/m 0 min 0 min 7 W/m 6,4 km/h (2 Bft) 97,87 %
05.02.2022 08:18 2,2 C 1,7 C -0,6 C 93 % 1020,6 hPa 0,0 l/m 0 min 0 min 9 W/m 16,1 km/h (3 Bft) 97,87 %
05.02.2022 08:20 2,2 C 1,7 C -0,6 C 93 % 1020,6 hPa 0,0 l/m 0 min 0 min 9 W/m 12,9 km/h (3 Bft) 95,74 %
05.02.2022 08:22 2,2 C 1,7 C -0,6 C 93 % 1020,6 hPa 0,0 l/m 0 min 0 min 11 W/m 12,9 km/h (3 Bft) 95,65 %
05.02.2022 08:24 2,2 C 1,7 C -0,6 C 93 % 1020,6 hPa 0,0 l/m 0 min 0 min 12 W/m 6,4 km/h (2 Bft) 97,87 %
05.02.2022 08:26 2,2 C 1,7 C -0,6 C 93 % 1020,6 hPa 0,0 l/m 0 min 0 min 12 W/m 19,3 km/h (3 Bft) 95,74 %
05.02.2022 08:28 2,2 C 1,7 C -0,6 C 93 % 1020,6 hPa 0,0 l/m 0 min 0 min 13 W/m 19,3 km/h (3 Bft) 97,87 %
05.02.2022 08:30 2,2 C 1,7 C -0,6 C 93 % 1020,6 hPa 0,0 l/m 0 min 0 min 14 W/m 9,7 km/h (2 Bft) 97,87 %
05.02.2022 08:32 2,3 C 1,7 C -0,6 C 93 % 1020,6 hPa 0,0 l/m 0 min 0 min 18 W/m 16,1 km/h (3 Bft) 97,87 %
05.02.2022 08:34 2,3 C 1,7 C -0,6 C 93 % 1020,7 hPa 0,0 l/m 0 min 0 min 19 W/m 9,7 km/h (2 Bft) 100,00 %
05.02.2022 08:36 2,3 C 1,7 C -0,6 C 93 % 1020,7 hPa 0,0 l/m 0 min 0 min 14 W/m 22,5 km/h (4 Bft) 97,87 %
05.02.2022 08:38 2,3 C 1,7 C -0,6 C 93 % 1020,7 hPa 0,0 l/m 0 min 0 min 14 W/m 6,4 km/h (2 Bft) 100,00 %
05.02.2022 08:40 2,3 C 1,7 C -0,6 C 93 % 1020,7 hPa 0,0 l/m 0 min 0 min 16 W/m 16,1 km/h (3 Bft) 100,00 %
05.02.2022 08:42 2,3 C 1,7 C -0,6 C 93 % 1020,7 hPa 0,0 l/m 0 min 0 min 18 W/m 12,9 km/h (3 Bft) 100,00 %
05.02.2022 08:44 2,3 C 1,7 C -0,6 C 93 % 1020,8 hPa 0,0 l/m 0 min 0 min 18 W/m 12,9 km/h (3 Bft) 100,00 %
05.02.2022 08:46 2,3 C 1,7 C -0,6 C 93 % 1020,7 hPa 0,0 l/m 0 min 0 min 18 W/m 12,9 km/h (3 Bft) 95,74 %
05.02.2022 08:48 2,3 C 1,7 C -0,6 C 93 % 1020,8 hPa 0,0 l/m 0 min 0 min 19 W/m 6,4 km/h (2 Bft) 100,00 %
05.02.2022 08:50 2,3 C 1,7 C -0,6 C 93 % 1020,8 hPa 0,0 l/m 0 min 0 min 19 W/m 12,9 km/h (3 Bft) 100,00 %
05.02.2022 08:52 2,3 C 1,7 C -0,6 C 93 % 1020,9 hPa 0,0 l/m 0 min 0 min 21 W/m 9,7 km/h (2 Bft) 97,87 %
05.02.2022 08:54 2,4 C 1,7 C -0,6 C 93 % 1020,9 hPa 0,0 l/m 0 min 0 min 23 W/m 12,9 km/h (3 Bft) 97,83 %
05.02.2022 08:56 2,4 C 1,7 C -0,6 C 93 % 1020,9 hPa 0,0 l/m 0 min 0 min 24 W/m 6,4 km/h (2 Bft) 100,00 %
05.02.2022 08:58 2,4 C 2,2 C 0,0 C 93 % 1020,8 hPa 0,0 l/m 0 min 0 min 25 W/m 19,3 km/h (3 Bft) 100,00 %
05.02.2022 09:00 2,4 C 2,2 C 0,0 C 93 % 1020,9 hPa 0,0 l/m 0 min 0 min 26 W/m 16,1 km/h (3 Bft) 100,00 %
05.02.2022 09:02 2,4 C 2,2 C 0,0 C 93 % 1020,8 hPa 0,0 l/m 0 min 0 min 27 W/m 16,1 km/h (3 Bft) 97,87 %
05.02.2022 09:04 2,5 C 2,2 C 0,0 C 93 % 1020,9 hPa 0,0 l/m 0 min 0 min 33 W/m 9,7 km/h (2 Bft) 100,00 %
05.02.2022 09:06 2,5 C 2,2 C 0,0 C 93 % 1020,9 hPa 0,0 l/m 0 min 0 min 45 W/m 6,4 km/h (2 Bft) 97,83 %
05.02.2022 09:08 2,5 C 2,2 C 0,0 C 93 % 1020,8 hPa 0,0 l/m 0 min 0 min 58 W/m 16,1 km/h (3 Bft) 100,00 %
05.02.2022 09:10 2,6 C 2,2 C 0,0 C 93 % 1020,9 hPa 0,0 l/m 0 min 0 min 49 W/m 16,1 km/h (3 Bft) 100,00 %
05.02.2022 09:12 2,6 C 2,2 C 0,0 C 93 % 1020,9 hPa 0,0 l/m 0 min 0 min 37 W/m 9,7 km/h (2 Bft) 100,00 %
05.02.2022 09:14 2,6 C 2,2 C 0,0 C 93 % 1020,9 hPa 0,0 l/m 0 min 0 min 35 W/m 12,9 km/h (3 Bft) 93,62 %
05.02.2022 09:16 2,7 C 2,2 C 0,0 C 93 % 1021,0 hPa 0,0 l/m 0 min 0 min 37 W/m 16,1 km/h (3 Bft) 97,87 %
05.02.2022 09:18 2,7 C 2,2 C 0,0 C 93 % 1021,0 hPa 0,0 l/m 0 min 0 min 50 W/m 16,1 km/h (3 Bft) 97,83 %
05.02.2022 09:20 2,7 C 2,2 C 0,0 C 93 % 1021,1 hPa 0,0 l/m 0 min 0 min 50 W/m 9,7 km/h (2 Bft) 97,87 %
05.02.2022 09:22 2,8 C 2,8 C 0,0 C 93 % 1021,1 hPa 0,0 l/m 0 min 0 min 65 W/m 19,3 km/h (3 Bft) 97,87 %
05.02.2022 09:24 2,8 C 2,8 C 0,0 C 93 % 1021,1 hPa 0,0 l/m 0 min 0 min 58 W/m 12,9 km/h (3 Bft) 93,62 %
05.02.2022 09:26 2,8 C 2,8 C 0,0 C 93 % 1021,1 hPa 0,0 l/m 0 min 0 min 44 W/m 16,1 km/h (3 Bft) 97,87 %
05.02.2022 09:28 2,9 C 2,8 C 0,6 C 93 % 1021,1 hPa 0,0 l/m 0 min 0 min 53 W/m 16,1 km/h (3 Bft) 97,87 %
05.02.2022 09:30 2,9 C 2,8 C 0,6 C 93 % 1021,2 hPa 0,0 l/m 0 min 0 min 51 W/m 12,9 km/h (3 Bft) 97,87 %
05.02.2022 09:32 3,0 C 2,8 C 0,6 C 93 % 1021,1 hPa 0,0 l/m 0 min 0 min 53 W/m 16,1 km/h (3 Bft) 97,83 %
05.02.2022 09:34 3,1 C 2,8 C 0,6 C 93 % 1021,1 hPa 0,0 l/m 0 min 0 min 43 W/m 16,1 km/h (3 Bft) 95,74 %
05.02.2022 09:36 3,1 C 2,8 C 0,6 C 93 % 1021,2 hPa 0,0 l/m 0 min 0 min 50 W/m 16,1 km/h (3 Bft) 95,74 %
05.02.2022 09:38 3,1 C 2,8 C 0,6 C 93 % 1021,3 hPa 0,0 l/m 0 min 0 min 86 W/m 12,9 km/h (3 Bft) 95,74 %
05.02.2022 09:40 3,1 C 2,8 C 0,6 C 93 % 1021,3 hPa 0,0 l/m 2 min 0 min 128 W/m 12,9 km/h (3 Bft) 93,62 %
05.02.2022 09:42 3,2 C 2,8 C 0,6 C 93 % 1021,4 hPa 0,0 l/m 2 min 0 min 140 W/m 16,1 km/h (3 Bft) 93,48 %
05.02.2022 09:44 3,2 C 3,3 C 0,6 C 93 % 1021,4 hPa 0,0 l/m 2 min 0 min 149 W/m 19,3 km/h (3 Bft) 93,62 %
05.02.2022 09:46 3,3 C 3,3 C 0,6 C 93 % 1021,3 hPa 0,0 l/m 0 min 0 min 90 W/m 12,9 km/h (3 Bft) 95,74 %
05.02.2022 09:48 3,3 C 3,3 C 0,6 C 93 % 1021,4 hPa 0,0 l/m 0 min 0 min 76 W/m 9,7 km/h (2 Bft) 95,74 %
05.02.2022 09:50 3,3 C 3,3 C 0,6 C 93 % 1021,4 hPa 0,0 l/m 0 min 0 min 96 W/m 6,4 km/h (2 Bft) 93,62 %
05.02.2022 09:52 3,4 C 3,3 C 0,6 C 93 % 1021,3 hPa 0,0 l/m 0 min 0 min 98 W/m 12,9 km/h (3 Bft) 95,74 %
05.02.2022 09:54 3,4 C 3,3 C 0,6 C 93 % 1021,3 hPa 0,0 l/m 0 min 0 min 104 W/m 19,3 km/h (3 Bft) 95,65 %
05.02.2022 09:56 3,4 C 3,3 C 0,6 C 93 % 1021,2 hPa 0,0 l/m 0 min 0 min 113 W/m 12,9 km/h (3 Bft) 93,62 %
05.02.2022 09:58 3,5 C 3,3 C 0,6 C 93 % 1021,2 hPa 0,0 l/m 2 min 0 min 163 W/m 19,3 km/h (3 Bft) 95,74 %
05.02.2022 10:00 3,6 C 3,9 C 0,6 C 93 % 1021,2 hPa 0,0 l/m 2 min 0 min 165 W/m 12,9 km/h (3 Bft) 93,62 %
05.02.2022 10:02 3,6 C 3,9 C 0,6 C 93 % 1021,2 hPa 0,0 l/m 2 min 0 min 165 W/m 9,7 km/h (2 Bft) 95,74 %
05.02.2022 10:04 3,6 C 3,9 C 1,1 C 92 % 1021,1 hPa 0,0 l/m 2 min 0 min 155 W/m 12,9 km/h (3 Bft) 95,74 %
05.02.2022 10:06 3,7 C 4,4 C 1,1 C 92 % 1021,1 hPa 0,0 l/m 2 min 0 min 149 W/m 9,7 km/h (2 Bft) 95,65 %
05.02.2022 10:08 3,7 C 5,0 C 1,1 C 92 % 1021,2 hPa 0,0 l/m 2 min 0 min 157 W/m 19,3 km/h (3 Bft) 93,62 %
05.02.2022 10:10 3,8 C 5,6 C 1,1 C 92 % 1021,1 hPa 0,0 l/m 2 min 0 min 217 W/m 12,9 km/h (3 Bft) 95,92 %
05.02.2022 10:12 3,8 C 6,7 C 1,1 C 92 % 1021,1 hPa 0,0 l/m 2 min 0 min 221 W/m 25,7 km/h (4 Bft) 91,49 %
05.02.2022 10:14 3,9 C 7,2 C 1,1 C 92 % 1021,1 hPa 0,0 l/m 2 min 0 min 238 W/m 12,9 km/h (3 Bft) 93,62 %
05.02.2022 10:16 4,0 C 8,3 C 1,1 C 92 % 1021,1 hPa 0,0 l/m 2 min 0 min 251 W/m 9,7 km/h (2 Bft) 95,74 %
05.02.2022 10:18 4,1 C 9,4 C 1,1 C 92 % 1021,2 hPa 0,0 l/m 2 min 0 min 256 W/m 19,3 km/h (3 Bft) 95,65 %
05.02.2022 10:20 4,1 C 10,0 C 1,1 C 92 % 1021,1 hPa 0,0 l/m 2 min 0 min 259 W/m 16,1 km/h (3 Bft) 95,74 %
05.02.2022 10:22 4,2 C 10,6 C 1,1 C 92 % 1021,2 hPa 0,0 l/m 2 min 0 min 262 W/m 12,9 km/h (3 Bft) 95,74 %
05.02.2022 10:24 4,2 C 10,0 C 1,1 C 91 % 1021,2 hPa 0,0 l/m 2 min 0 min 244 W/m 16,1 km/h (3 Bft) 93,62 %
05.02.2022 10:26 4,3 C 9,4 C 1,1 C 91 % 1021,1 hPa 0,0 l/m 2 min 0 min 230 W/m 19,3 km/h (3 Bft) 95,74 %
05.02.2022 10:28 4,3 C 10,0 C 1,1 C 91 % 1021,2 hPa 0,0 l/m 2 min 0 min 255 W/m 12,9 km/h (3 Bft) 95,65 %
05.02.2022 10:30 4,4 C 11,1 C 1,1 C 91 % 1021,2 hPa 0,0 l/m 2 min 0 min 272 W/m 19,3 km/h (3 Bft) 95,74 %
05.02.2022 10:32 4,5 C 11,7 C 1,7 C 91 % 1021,2 hPa 0,0 l/m 2 min 0 min 273 W/m 12,9 km/h (3 Bft) 93,62 %
05.02.2022 10:34 4,6 C 11,7 C 1,7 C 91 % 1021,3 hPa 0,0 l/m 2 min 0 min 278 W/m 16,1 km/h (3 Bft) 95,74 %
05.02.2022 10:36 4,7 C 11,7 C 1,7 C 90 % 1021,3 hPa 0,0 l/m 2 min 0 min 276 W/m 19,3 km/h (3 Bft) 95,74 %
05.02.2022 10:38 4,7 C 10,6 C 1,7 C 90 % 1021,4 hPa 0,0 l/m 2 min 0 min 279 W/m 19,3 km/h (3 Bft) 95,74 %
05.02.2022 10:40 4,7 C 10,6 C 1,7 C 90 % 1021,4 hPa 0,0 l/m 2 min 0 min 280 W/m 29,0 km/h (5 Bft) 95,65 %
05.02.2022 10:42 4,8 C 11,1 C 1,7 C 89 % 1021,4 hPa 0,0 l/m 2 min 0 min 290 W/m 12,9 km/h (3 Bft) 95,74 %
05.02.2022 10:44 4,8 C 11,7 C 1,7 C 89 % 1021,6 hPa 0,0 l/m 2 min 0 min 296 W/m 16,1 km/h (3 Bft) 95,74 %
05.02.2022 10:46 4,9 C 12,2 C 1,7 C 90 % 1021,5 hPa 0,0 l/m 2 min 0 min 292 W/m 12,9 km/h (3 Bft) 93,62 %
05.02.2022 10:48 4,9 C 11,7 C 1,7 C 89 % 1021,5 hPa 0,0 l/m 2 min 0 min 306 W/m 16,1 km/h (3 Bft) 95,74 %
05.02.2022 10:50 5,0 C 12,2 C 1,7 C 89 % 1021,5 hPa 0,0 l/m 2 min 0 min 315 W/m 12,9 km/h (3 Bft) 95,74 %
05.02.2022 10:52 5,1 C 12,8 C 2,2 C 89 % 1021,5 hPa 0,0 l/m 2 min 0 min 319 W/m 12,9 km/h (3 Bft) 95,65 %
05.02.2022 10:54 5,1 C 12,2 C 2,2 C 89 % 1021,5 hPa 0,0 l/m 2 min 0 min 285 W/m 16,1 km/h (3 Bft) 93,62 %
05.02.2022 10:56 5,2 C 12,2 C 2,2 C 89 % 1021,4 hPa 0,0 l/m 2 min 0 min 249 W/m 16,1 km/h (3 Bft) 95,74 %
05.02.2022 10:58 5,2 C 11,7 C 2,2 C 88 % 1021,5 hPa 0,0 l/m 2 min 0 min 269 W/m 16,1 km/h (3 Bft) 95,92 %
05.02.2022 11:00 5,3 C 11,7 C 2,2 C 88 % 1021,6 hPa 0,0 l/m 2 min 0 min 294 W/m 16,1 km/h (3 Bft) 93,62 %
05.02.2022 11:02 5,3 C 11,7 C 2,2 C 88 % 1021,6 hPa 0,0 l/m 2 min 0 min 313 W/m 16,1 km/h (3 Bft) 95,74 %
05.02.2022 11:04 5,3 C 12,8 C 2,2 C 88 % 1021,6 hPa 0,0 l/m 2 min 0 min 340 W/m 12,9 km/h (3 Bft) 97,87 %
05.02.2022 11:06 5,4 C 12,8 C 2,2 C 88 % 1021,6 hPa 0,0 l/m 2 min 0 min 350 W/m 12,9 km/h (3 Bft) 97,87 %
05.02.2022 11:08 5,5 C 13,3 C 2,2 C 88 % 1021,6 hPa 0,0 l/m 2 min 0 min 340 W/m 22,5 km/h (4 Bft) 97,83 %
05.02.2022 11:10 5,6 C 12,2 C 2,2 C 88 % 1021,6 hPa 0,0 l/m 2 min 0 min 364 W/m 16,1 km/h (3 Bft) 97,87 %
05.02.2022 11:12 5,5 C 11,7 C 2,2 C 87 % 1021,6 hPa 0,0 l/m 0 min 0 min 140 W/m 12,9 km/h (3 Bft) 97,87 %
05.02.2022 11:14 5,6 C 12,2 C 2,8 C 88 % 1021,7 hPa 0,0 l/m 2 min 0 min 343 W/m 12,9 km/h (3 Bft) 95,74 %
05.02.2022 11:16 5,6 C 11,7 C 2,8 C 87 % 1021,7 hPa 0,0 l/m 2 min 0 min 371 W/m 9,7 km/h (2 Bft) 97,87 %
05.02.2022 11:18 5,6 C 11,1 C 2,8 C 87 % 1021,7 hPa 0,0 l/m 2 min 0 min 367 W/m 16,1 km/h (3 Bft) 97,87 %
05.02.2022 11:20 5,6 C 12,2 C 2,8 C 87 % 1021,7 hPa 0,0 l/m 2 min 0 min 380 W/m 19,3 km/h (3 Bft) 97,83 %
05.02.2022 11:22 5,6 C 11,7 C 2,8 C 87 % 1021,7 hPa 0,0 l/m 2 min 0 min 218 W/m 19,3 km/h (3 Bft) 97,87 %
05.02.2022 11:24 5,7 C 12,2 C 2,8 C 87 % 1021,7 hPa 0,0 l/m 2 min 0 min 369 W/m 9,7 km/h (2 Bft) 95,74 %
05.02.2022 11:26 5,7 C 11,7 C 3,3 C 87 % 1021,7 hPa 0,0 l/m 2 min 0 min 454 W/m 16,1 km/h (3 Bft) 97,87 %
05.02.2022 11:28 5,8 C 12,8 C 3,3 C 87 % 1021,7 hPa 0,0 l/m 2 min 0 min 455 W/m 12,9 km/h (3 Bft) 97,87 %
05.02.2022 11:30 5,9 C 12,8 C 3,3 C 87 % 1021,7 hPa 0,0 l/m 2 min 0 min 414 W/m 19,3 km/h (3 Bft) 97,87 %
05.02.2022 11:32 5,9 C 12,2 C 3,3 C 87 % 1021,6 hPa 0,0 l/m 2 min 0 min 401 W/m 16,1 km/h (3 Bft) 97,87 %
05.02.2022 11:34 5,9 C 10,6 C 3,3 C 87 % 1021,7 hPa 0,0 l/m 2 min 0 min 348 W/m 16,1 km/h (3 Bft) 97,87 %
05.02.2022 11:36 5,9 C 10,6 C 3,3 C 87 % 1021,7 hPa 0,0 l/m 2 min 0 min 212 W/m 16,1 km/h (3 Bft) 100,00 %
05.02.2022 11:38 6,0 C 11,1 C 3,3 C 87 % 1021,7 hPa 0,0 l/m 2 min 0 min 241 W/m 12,9 km/h (3 Bft) 95,65 %
05.02.2022 11:40 6,0 C 9,4 C 3,3 C 87 % 1021,7 hPa 0,0 l/m 2 min 0 min 187 W/m 12,9 km/h (3 Bft) 95,74 %
05.02.2022 11:42 6,0 C 8,9 C 3,3 C 87 % 1021,8 hPa 0,0 l/m 0 min 0 min 109 W/m 16,1 km/h (3 Bft) 93,62 %
05.02.2022 11:44 6,0 C 10,0 C 3,3 C 86 % 1021,7 hPa 0,0 l/m 2 min 0 min 301 W/m 19,3 km/h (3 Bft) 95,74 %
05.02.2022 11:46 5,9 C 8,9 C 3,3 C 86 % 1021,7 hPa 0,0 l/m 2 min 0 min 424 W/m 19,3 km/h (3 Bft) 91,49 %
05.02.2022 11:48 5,9 C 7,8 C 3,3 C 86 % 1021,7 hPa 0,0 l/m 2 min 0 min 279 W/m 19,3 km/h (3 Bft) 95,74 %
05.02.2022 11:50 5,8 C 7,8 C 3,3 C 86 % 1021,6 hPa 0,0 l/m 2 min 0 min 269 W/m 16,1 km/h (3 Bft) 95,65 %
05.02.2022 11:52 5,9 C 8,3 C 3,3 C 86 % 1021,6 hPa 0,0 l/m 2 min 0 min 380 W/m 16,1 km/h (3 Bft) 95,74 %
05.02.2022 11:54 5,9 C 7,8 C 3,3 C 86 % 1021,6 hPa 0,0 l/m 2 min 0 min 262 W/m 16,1 km/h (3 Bft) 95,92 %
05.02.2022 11:56 5,9 C 7,8 C 3,3 C 86 % 1021,7 hPa 0,0 l/m 0 min 0 min 187 W/m 12,9 km/h (3 Bft) 94,44 %
05.02.2022 11:58 5,9 C 7,2 C 3,3 C 86 % 1021,6 hPa 0,0 l/m 0 min 0 min 182 W/m 19,3 km/h (3 Bft) 95,65 %
05.02.2022 12:00 5,9 C 7,2 C 3,3 C 86 % 1021,6 hPa 0,0 l/m 2 min 0 min 206 W/m 19,3 km/h (3 Bft) 95,74 %
05.02.2022 12:02 5,9 C 6,7 C 3,3 C 85 % 1021,6 hPa 0,0 l/m 0 min 0 min 179 W/m 16,1 km/h (3 Bft) 93,62 %
05.02.2022 12:04 5,9 C 6,7 C 3,3 C 85 % 1021,5 hPa 0,0 l/m 2 min 0 min 208 W/m 16,1 km/h (3 Bft) 95,74 %
05.02.2022 12:08 5,9 C 6,1 C 2,8 C 84 % 1021,5 hPa 0,0 l/m 0 min 0 min 125 W/m 19,3 km/h (3 Bft) 95,74 %
05.02.2022 12:10 5,8 C 6,1 C 2,8 C 84 % 1021,5 hPa 0,0 l/m 0 min 0 min 120 W/m 16,1 km/h (3 Bft) 95,65 %
05.02.2022 12:12 5,9 C 6,1 C 2,8 C 84 % 1021,5 hPa 0,0 l/m 0 min 0 min 134 W/m 22,5 km/h (4 Bft) 95,74 %
05.02.2022 12:14 5,8 C 6,1 C 2,8 C 84 % 1021,4 hPa 0,0 l/m 0 min 0 min 145 W/m 19,3 km/h (3 Bft) 95,74 %
05.02.2022 12:16 5,9 C 6,1 C 3,3 C 84 % 1021,4 hPa 0,0 l/m 2 min 0 min 194 W/m 12,9 km/h (3 Bft) 95,74 %
05.02.2022 12:18 5,9 C 7,8 C 3,3 C 85 % 1021,4 hPa 0,0 l/m 2 min 0 min 234 W/m 9,7 km/h (2 Bft) 95,74 %
05.02.2022 12:20 6,0 C 7,2 C 3,3 C 85 % 1021,4 hPa 0,0 l/m 2 min 0 min 199 W/m 12,9 km/h (3 Bft) 91,30 %
05.02.2022 12:22 6,1 C 7,2 C 3,3 C 85 % 1021,3 hPa 0,0 l/m 2 min 0 min 209 W/m 19,3 km/h (3 Bft) 91,49 %
05.02.2022 12:24 6,1 C 6,7 C 3,3 C 84 % 1021,3 hPa 0,0 l/m 2 min 0 min 196 W/m 19,3 km/h (3 Bft) 93,62 %
05.02.2022 12:26 6,1 C 6,7 C 3,3 C 84 % 1021,4 hPa 0,0 l/m 0 min 0 min 186 W/m 32,2 km/h (5 Bft) 97,87 %
05.02.2022 12:28 6,1 C 7,2 C 3,3 C 84 % 1021,4 hPa 0,0 l/m 2 min 0 min 195 W/m 19,3 km/h (3 Bft) 100,00 %
05.02.2022 12:30 6,2 C 7,8 C 3,3 C 84 % 1021,3 hPa 0,0 l/m 2 min 0 min 217 W/m 12,9 km/h (3 Bft) 97,87 %
05.02.2022 12:32 6,3 C 9,4 C 3,9 C 84 % 1021,3 hPa 0,0 l/m 0 min 0 min 178 W/m 16,1 km/h (3 Bft) 95,65 %
05.02.2022 12:34 6,4 C 10,0 C 3,9 C 84 % 1021,3 hPa 0,0 l/m 2 min 0 min 300 W/m 12,9 km/h (3 Bft) 95,74 %
05.02.2022 12:36 6,5 C 8,9 C 3,9 C 84 % 1021,3 hPa 0,0 l/m 2 min 0 min 378 W/m 12,9 km/h (3 Bft) 93,62 %
05.02.2022 12:38 6,6 C 7,8 C 3,9 C 84 % 1021,3 hPa 0,0 l/m 0 min 0 min 149 W/m 12,9 km/h (3 Bft) 95,74 %
05.02.2022 12:40 6,5 C 7,2 C 3,3 C 82 % 1021,4 hPa 0,0 l/m 0 min 0 min 178 W/m 19,3 km/h (3 Bft) 97,87 %
05.02.2022 12:42 6,5 C 7,2 C 3,3 C 82 % 1021,4 hPa 0,0 l/m 0 min 0 min 167 W/m 12,9 km/h (3 Bft) 95,74 %
05.02.2022 12:44 6,5 C 7,8 C 3,3 C 82 % 1021,4 hPa 0,0 l/m 2 min 0 min 219 W/m 12,9 km/h (3 Bft) 97,83 %
05.02.2022 12:46 6,5 C 7,8 C 3,3 C 83 % 1021,3 hPa 0,0 l/m 2 min 0 min 302 W/m 22,5 km/h (4 Bft) 97,87 %
05.02.2022 12:48 6,6 C 9,4 C 3,9 C 83 % 1021,3 hPa 0,0 l/m 2 min 0 min 349 W/m 16,1 km/h (3 Bft) 97,87 %
05.02.2022 12:50 6,7 C 10,0 C 3,9 C 83 % 1021,3 hPa 0,0 l/m 2 min 0 min 409 W/m 16,1 km/h (3 Bft) 97,87 %
05.02.2022 12:52 6,8 C 11,1 C 3,9 C 83 % 1021,4 hPa 0,0 l/m 2 min 0 min 366 W/m 12,9 km/h (3 Bft) 95,74 %
05.02.2022 12:54 6,9 C 10,6 C 3,9 C 82 % 1021,4 hPa 0,0 l/m 2 min 0 min 376 W/m 16,1 km/h (3 Bft) 97,87 %
05.02.2022 12:56 6,9 C 10,0 C 3,9 C 82 % 1021,3 hPa 0,0 l/m 2 min 0 min 343 W/m 9,7 km/h (2 Bft) 97,83 %
05.02.2022 12:58 7,0 C 9,4 C 3,9 C 82 % 1021,3 hPa 0,0 l/m 2 min 0 min 237 W/m 12,9 km/h (3 Bft) 97,87 %
05.02.2022 13:00 6,9 C 8,3 C 3,9 C 81 % 1021,3 hPa 0,0 l/m 0 min 0 min 120 W/m 9,7 km/h (2 Bft) 97,87 %
05.02.2022 13:02 6,9 C 7,8 C 3,9 C 81 % 1021,4 hPa 0,0 l/m 0 min 0 min 132 W/m 16,1 km/h (3 Bft) 97,87 %
05.02.2022 13:04 6,9 C 7,2 C 3,9 C 81 % 1021,4 hPa 0,0 l/m 0 min 0 min 167 W/m 12,9 km/h (3 Bft) 97,87 %
05.02.2022 13:06 6,8 C 7,2 C 3,9 C 81 % 1021,3 hPa 0,0 l/m 0 min 0 min 171 W/m 19,3 km/h (3 Bft) 97,87 %
05.02.2022 13:08 6,7 C 6,7 C 3,9 C 80 % 1021,4 hPa 0,0 l/m 0 min 0 min 177 W/m 22,5 km/h (4 Bft) 97,83 %
05.02.2022 13:10 6,7 C 7,2 C 3,9 C 80 % 1021,3 hPa 0,0 l/m 0 min 0 min 171 W/m 16,1 km/h (3 Bft) 97,87 %
05.02.2022 13:12 6,7 C 6,7 C 3,3 C 80 % 1021,3 hPa 0,0 l/m 0 min 0 min 165 W/m 19,3 km/h (3 Bft) 97,87 %
05.02.2022 13:14 6,7 C 7,2 C 3,3 C 80 % 1021,3 hPa 0,0 l/m 2 min 0 min 202 W/m 19,3 km/h (3 Bft) 100,00 %
05.02.2022 13:16 6,7 C 7,2 C 3,3 C 80 % 1021,3 hPa 0,0 l/m 0 min 0 min 138 W/m 9,7 km/h (2 Bft) 100,00 %
05.02.2022 13:18 6,7 C 6,7 C 3,3 C 80 % 1021,3 hPa 0,0 l/m 0 min 0 min 141 W/m 22,5 km/h (4 Bft) 100,00 %
05.02.2022 13:20 6,6 C 6,7 C 3,3 C 80 % 1021,2 hPa 0,0 l/m 0 min 0 min 117 W/m 12,9 km/h (3 Bft) 100,00 %
05.02.2022 13:22 6,6 C 7,2 C 3,3 C 80 % 1021,2 hPa 0,0 l/m 0 min 0 min 148 W/m 12,9 km/h (3 Bft) 100,00 %
05.02.2022 13:24 6,6 C 7,2 C 3,3 C 80 % 1021,1 hPa 0,0 l/m 0 min 0 min 111 W/m 16,1 km/h (3 Bft) 97,87 %
05.02.2022 13:26 6,6 C 7,2 C 3,3 C 80 % 1021,1 hPa 0,0 l/m 0 min 0 min 146 W/m 16,1 km/h (3 Bft) 100,00 %
05.02.2022 13:28 6,6 C 8,3 C 3,3 C 80 % 1021,0 hPa 0,0 l/m 0 min 0 min 134 W/m 19,3 km/h (3 Bft) 100,00 %
05.02.2022 13:30 6,6 C 8,3 C 3,3 C 80 % 1021,0 hPa 0,0 l/m 2 min 0 min 281 W/m 12,9 km/h (3 Bft) 100,00 %
05.02.2022 13:32 6,6 C 7,8 C 3,3 C 80 % 1021,0 hPa 0,0 l/m 0 min 0 min 127 W/m 16,1 km/h (3 Bft) 100,00 %
05.02.2022 13:34 6,6 C 9,4 C 3,3 C 80 % 1021,1 hPa 0,0 l/m 2 min 0 min 222 W/m 16,1 km/h (3 Bft) 97,87 %
05.02.2022 13:36 6,7 C 10,6 C 3,3 C 79 % 1021,0 hPa 0,0 l/m 2 min 0 min 245 W/m 25,7 km/h (4 Bft) 97,87 %
05.02.2022 13:38 6,8 C 12,2 C 3,3 C 79 % 1021,0 hPa 0,0 l/m 2 min 0 min 389 W/m 22,5 km/h (4 Bft) 100,00 %
05.02.2022 13:40 7,0 C 13,3 C 3,9 C 79 % 1020,9 hPa 0,0 l/m 2 min 0 min 437 W/m 22,5 km/h (4 Bft) 100,00 %
05.02.2022 13:42 7,1 C 13,9 C 3,9 C 79 % 1020,8 hPa 0,0 l/m 2 min 0 min 466 W/m 19,3 km/h (3 Bft) 100,00 %
05.02.2022 13:44 7,3 C 13,3 C 3,9 C 77 % 1020,8 hPa 0,0 l/m 2 min 0 min 467 W/m 48,3 km/h (6 Bft) 100,00 %
05.02.2022 13:46 7,4 C 13,9 C 3,9 C 77 % 1020,8 hPa 0,0 l/m 2 min 0 min 522 W/m 35,4 km/h (5 Bft) 100,00 %
05.02.2022 13:48 7,6 C 14,4 C 3,9 C 76 % 1020,7 hPa 0,0 l/m 2 min 0 min 522 W/m 32,2 km/h (5 Bft) 100,00 %
05.02.2022 13:50 7,7 C 15,0 C 4,4 C 76 % 1020,8 hPa 0,0 l/m 2 min 0 min 381 W/m 16,1 km/h (3 Bft) 100,00 %
05.02.2022 13:52 7,8 C 14,4 C 4,4 C 75 % 1020,7 hPa 0,0 l/m 2 min 0 min 520 W/m 38,6 km/h (5 Bft) 95,74 %
05.02.2022 13:54 7,8 C 13,3 C 4,4 C 74 % 1020,8 hPa 0,0 l/m 2 min 0 min 473 W/m 22,5 km/h (4 Bft) 100,00 %
05.02.2022 13:56 7,9 C 13,3 C 4,4 C 74 % 1020,8 hPa 0,0 l/m 2 min 0 min 499 W/m 22,5 km/h (4 Bft) 100,00 %
05.02.2022 13:58 7,9 C 12,2 C 4,4 C 74 % 1021,0 hPa 0,0 l/m 2 min 0 min 464 W/m 19,3 km/h (3 Bft) 100,00 %
05.02.2022 14:00 7,8 C 11,1 C 3,9 C 73 % 1020,9 hPa 0,0 l/m 2 min 0 min 274 W/m 25,7 km/h (4 Bft) 100,00 %
05.02.2022 14:02 7,8 C 9,4 C 3,9 C 72 % 1020,9 hPa 0,0 l/m 0 min 0 min 157 W/m 16,1 km/h (3 Bft) 100,00 %
05.02.2022 14:04 7,7 C 8,3 C 3,9 C 73 % 1020,8 hPa 0,0 l/m 0 min 0 min 154 W/m 12,9 km/h (3 Bft) 100,00 %
05.02.2022 14:06 7,6 C 7,8 C 3,9 C 72 % 1020,8 hPa 0,0 l/m 0 min 0 min 139 W/m 25,7 km/h (4 Bft) 97,87 %
05.02.2022 14:08 7,5 C 7,2 C 3,9 C 73 % 1020,8 hPa 0,0 l/m 0 min 0 min 104 W/m 29,0 km/h (5 Bft) 100,00 %
05.02.2022 14:10 7,3 C 7,2 C 3,3 C 72 % 1020,8 hPa 0,0 l/m 0 min 0 min 105 W/m 25,7 km/h (4 Bft) 100,00 %
05.02.2022 14:12 7,2 C 7,2 C 3,3 C 73 % 1020,8 hPa 0,0 l/m 0 min 0 min 111 W/m 19,3 km/h (3 Bft) 100,00 %
05.02.2022 14:14 7,2 C 6,7 C 3,3 C 74 % 1020,8 hPa 0,0 l/m 0 min 0 min 91 W/m 22,5 km/h (4 Bft) 100,00 %
05.02.2022 14:16 7,1 C 6,7 C 3,3 C 74 % 1020,8 hPa 0,0 l/m 0 min 0 min 90 W/m 16,1 km/h (3 Bft) 97,87 %
05.02.2022 14:18 7,1 C 7,2 C 3,3 C 75 % 1020,7 hPa 0,0 l/m 0 min 0 min 137 W/m 19,3 km/h (3 Bft) 95,65 %
05.02.2022 14:20 7,0 C 7,2 C 3,3 C 75 % 1020,7 hPa 0,0 l/m 0 min 0 min 150 W/m 16,1 km/h (3 Bft) 97,87 %
05.02.2022 14:22 7,0 C 7,2 C 3,3 C 75 % 1020,7 hPa 0,0 l/m 0 min 0 min 147 W/m 35,4 km/h (5 Bft) 95,74 %
05.02.2022 14:24 7,0 C 7,2 C 3,3 C 76 % 1020,7 hPa 0,0 l/m 0 min 0 min 129 W/m 16,1 km/h (3 Bft) 72,34 %
05.02.2022 14:26 6,9 C 7,2 C 3,3 C 75 % 1020,6 hPa 0,0 l/m 0 min 0 min 114 W/m 22,5 km/h (4 Bft) 82,61 %
05.02.2022 14:28 6,9 C 7,2 C 3,3 C 75 % 1020,6 hPa 0,0 l/m 0 min 0 min 145 W/m 22,5 km/h (4 Bft) 98,15 %
05.02.2022 14:30 6,9 C 7,2 C 3,3 C 74 % 1020,6 hPa 0,0 l/m 2 min 0 min 198 W/m 25,7 km/h (4 Bft) 98,00 %
05.02.2022 14:32 7,0 C 7,8 C 3,3 C 75 % 1020,6 hPa 0,0 l/m 0 min 0 min 162 W/m 16,1 km/h (3 Bft) 97,87 %
05.02.2022 14:34 7,0 C 7,8 C 3,3 C 75 % 1020,5 hPa 0,0 l/m 0 min 0 min 136 W/m 22,5 km/h (4 Bft) 95,65 %
05.02.2022 14:36 7,0 C 7,8 C 3,3 C 75 % 1020,5 hPa 0,0 l/m 0 min 0 min 151 W/m 16,1 km/h (3 Bft) 95,74 %
05.02.2022 14:38 7,1 C 7,8 C 3,3 C 75 % 1020,6 hPa 0,0 l/m 0 min 0 min 141 W/m 12,9 km/h (3 Bft) 95,74 %
05.02.2022 14:40 7,1 C 7,8 C 3,3 C 75 % 1020,6 hPa 0,0 l/m 0 min 0 min 147 W/m 19,3 km/h (3 Bft) 97,87 %
05.02.2022 14:42 7,1 C 7,2 C 3,3 C 74 % 1020,6 hPa 0,0 l/m 2 min 0 min 170 W/m 19,3 km/h (3 Bft) 95,74 %
05.02.2022 14:44 7,1 C 7,2 C 3,3 C 74 % 1020,6 hPa 0,0 l/m 0 min 0 min 137 W/m 19,3 km/h (3 Bft) 97,87 %
05.02.2022 14:46 7,1 C 7,8 C 3,3 C 75 % 1020,6 hPa 0,0 l/m 0 min 0 min 131 W/m 12,9 km/h (3 Bft) 97,87 %
05.02.2022 14:48 7,1 C 7,8 C 3,3 C 75 % 1020,6 hPa 0,0 l/m 0 min 0 min 131 W/m 16,1 km/h (3 Bft) 95,65 %
05.02.2022 14:50 7,1 C 8,3 C 3,3 C 75 % 1020,6 hPa 0,0 l/m 0 min 0 min 122 W/m 19,3 km/h (3 Bft) 95,74 %
05.02.2022 14:52 7,1 C 7,8 C 3,3 C 75 % 1020,5 hPa 0,0 l/m 0 min 0 min 128 W/m 12,9 km/h (3 Bft) 91,49 %
05.02.2022 14:54 7,1 C 7,8 C 3,3 C 75 % 1020,4 hPa 0,0 l/m 0 min 0 min 151 W/m 12,9 km/h (3 Bft) 97,87 %
05.02.2022 14:56 7,1 C 7,8 C 3,3 C 75 % 1020,4 hPa 0,0 l/m 0 min 0 min 109 W/m 16,1 km/h (3 Bft) 97,87 %
05.02.2022 14:58 7,1 C 7,2 C 3,3 C 74 % 1020,4 hPa 0,0 l/m 0 min 0 min 103 W/m 29,0 km/h (5 Bft) 97,83 %
05.02.2022 15:00 7,1 C 8,3 C 3,3 C 74 % 1020,4 hPa 0,0 l/m 2 min 0 min 182 W/m 19,3 km/h (3 Bft) 93,62 %
05.02.2022 15:02 7,2 C 8,9 C 3,3 C 75 % 1020,3 hPa 0,0 l/m 2 min 0 min 343 W/m 16,1 km/h (3 Bft) 93,62 %
05.02.2022 15:04 7,2 C 9,4 C 3,3 C 75 % 1020,2 hPa 0,0 l/m 2 min 0 min 350 W/m 19,3 km/h (3 Bft) 95,74 %
05.02.2022 15:06 7,3 C 9,4 C 3,3 C 74 % 1020,2 hPa 0,0 l/m 2 min 0 min 374 W/m 19,3 km/h (3 Bft) 93,62 %
05.02.2022 15:08 7,5 C 10,0 C 3,9 C 75 % 1020,2 hPa 0,0 l/m 2 min 0 min 392 W/m 25,7 km/h (4 Bft) 93,62 %
05.02.2022 15:10 7,6 C 9,4 C 3,9 C 74 % 1020,1 hPa 0,0 l/m 2 min 0 min 318 W/m 29,0 km/h (5 Bft) 95,65 %
05.02.2022 15:12 7,6 C 8,9 C 3,3 C 73 % 1020,2 hPa 0,0 l/m 2 min 0 min 142 W/m 25,7 km/h (4 Bft) 93,62 %
05.02.2022 15:14 7,6 C 8,3 C 3,3 C 73 % 1020,2 hPa 0,0 l/m 2 min 0 min 214 W/m 35,4 km/h (5 Bft) 93,62 %
05.02.2022 15:16 7,5 C 7,8 C 3,3 C 73 % 1020,1 hPa 0,0 l/m 0 min 0 min 108 W/m 25,7 km/h (4 Bft) 95,74 %
05.02.2022 15:18 7,4 C 7,8 C 3,3 C 72 % 1020,1 hPa 0,0 l/m 0 min 0 min 111 W/m 25,7 km/h (4 Bft) 95,74 %
05.02.2022 15:20 7,3 C 8,3 C 3,3 C 72 % 1020,0 hPa 0,0 l/m 2 min 0 min 219 W/m 22,5 km/h (4 Bft) 95,74 %
05.02.2022 15:22 7,4 C 8,3 C 3,3 C 72 % 1020,2 hPa 0,0 l/m 2 min 0 min 292 W/m 25,7 km/h (4 Bft) 95,65 %
05.02.2022 15:24 7,4 C 8,9 C 3,3 C 72 % 1020,2 hPa 0,0 l/m 2 min 0 min 137 W/m 32,2 km/h (5 Bft) 95,74 %
05.02.2022 15:26 7,4 C 10,0 C 3,3 C 72 % 1020,2 hPa 0,0 l/m 2 min 0 min 266 W/m 25,7 km/h (4 Bft) 95,74 %
05.02.2022 15:28 7,4 C 9,4 C 3,3 C 73 % 1020,2 hPa 0,0 l/m 2 min 0 min 274 W/m 19,3 km/h (3 Bft) 93,62 %
05.02.2022 15:30 7,4 C 8,3 C 3,3 C 71 % 1020,2 hPa 0,0 l/m 2 min 0 min 257 W/m 25,7 km/h (4 Bft) 95,74 %
05.02.2022 15:32 7,4 C 7,8 C 3,3 C 72 % 1020,1 hPa 0,0 l/m 2 min 0 min 160 W/m 22,5 km/h (4 Bft) 93,62 %
05.02.2022 15:34 7,5 C 7,8 C 3,3 C 72 % 1020,1 hPa 0,0 l/m 2 min 0 min 265 W/m 19,3 km/h (3 Bft) 95,65 %
05.02.2022 15:36 7,6 C 7,8 C 3,3 C 72 % 1020,1 hPa 0,0 l/m 2 min 0 min 283 W/m 32,2 km/h (5 Bft) 95,74 %
05.02.2022 15:38 7,6 C 7,8 C 3,3 C 72 % 1020,1 hPa 0,0 l/m 2 min 0 min 303 W/m 19,3 km/h (3 Bft) 95,74 %
05.02.2022 15:40 7,7 C 7,8 C 3,9 C 72 % 1020,1 hPa 0,0 l/m 2 min 0 min 321 W/m 22,5 km/h (4 Bft) 97,87 %
05.02.2022 15:42 7,7 C 7,8 C 3,9 C 72 % 1020,1 hPa 0,0 l/m 2 min 0 min 301 W/m 32,2 km/h (5 Bft) 95,74 %
05.02.2022 15:44 7,8 C 7,8 C 3,9 C 72 % 1020,1 hPa 0,0 l/m 2 min 0 min 286 W/m 19,3 km/h (3 Bft) 97,87 %
05.02.2022 15:46 7,8 C 7,8 C 3,9 C 72 % 1020,1 hPa 0,0 l/m 2 min 0 min 255 W/m 19,3 km/h (3 Bft) 97,83 %
05.02.2022 15:48 7,8 C 7,8 C 3,9 C 72 % 1020,1 hPa 0,0 l/m 2 min 0 min 174 W/m 22,5 km/h (4 Bft) 95,74 %
05.02.2022 15:50 7,8 C 7,8 C 3,9 C 72 % 1020,1 hPa 0,0 l/m 2 min 0 min 156 W/m 22,5 km/h (4 Bft) 97,87 %
05.02.2022 15:52 7,8 C 7,8 C 3,9 C 72 % 1020,2 hPa 0,0 l/m 2 min 0 min 144 W/m 16,1 km/h (3 Bft) 97,87 %
05.02.2022 15:54 7,8 C 7,8 C 3,9 C 72 % 1020,1 hPa 0,0 l/m 2 min 0 min 122 W/m 19,3 km/h (3 Bft) 97,87 %
05.02.2022 15:56 7,7 C 7,2 C 3,9 C 72 % 1020,2 hPa 0,0 l/m 2 min 0 min 131 W/m 29,0 km/h (5 Bft) 97,87 %
05.02.2022 15:58 7,7 C 7,2 C 3,9 C 72 % 1020,0 hPa 0,0 l/m 2 min 0 min 104 W/m 25,7 km/h (4 Bft) 97,83 %
05.02.2022 16:00 7,7 C 7,2 C 3,9 C 72 % 1020,0 hPa 0,0 l/m 2 min 0 min 96 W/m 16,1 km/h (3 Bft) 97,87 %
05.02.2022 16:02 7,6 C 7,2 C 3,3 C 72 % 1019,9 hPa 0,0 l/m 0 min 0 min 89 W/m 25,7 km/h (4 Bft) 97,87 %
05.02.2022 16:04 7,6 C 7,2 C 3,3 C 72 % 1020,0 hPa 0,0 l/m 0 min 0 min 80 W/m 19,3 km/h (3 Bft) 95,74 %
05.02.2022 16:06 7,5 C 7,2 C 3,3 C 72 % 1019,9 hPa 0,0 l/m 0 min 0 min 76 W/m 38,6 km/h (5 Bft) 100,00 %
05.02.2022 16:08 7,5 C 7,2 C 3,3 C 72 % 1019,9 hPa 0,0 l/m 0 min 0 min 74 W/m 25,7 km/h (4 Bft) 95,74 %
05.02.2022 16:10 7,4 C 7,2 C 3,3 C 72 % 1019,9 hPa 0,0 l/m 0 min 0 min 68 W/m 32,2 km/h (5 Bft) 100,00 %
05.02.2022 16:12 7,4 C 6,7 C 3,3 C 71 % 1020,0 hPa 0,0 l/m 0 min 0 min 62 W/m 64,4 km/h (8 Bft) 100,00 %
05.02.2022 16:14 7,4 C 6,7 C 3,3 C 72 % 1019,9 hPa 0,0 l/m 0 min 0 min 60 W/m 29,0 km/h (5 Bft) 100,00 %
05.02.2022 16:16 7,4 C 6,7 C 3,3 C 72 % 1019,9 hPa 0,0 l/m 0 min 0 min 57 W/m 32,2 km/h (5 Bft) 100,00 %
05.02.2022 16:18 7,3 C 6,7 C 3,3 C 72 % 1020,0 hPa 0,0 l/m 0 min 0 min 56 W/m 16,1 km/h (3 Bft) 100,00 %
05.02.2022 16:20 7,3 C 6,7 C 3,3 C 72 % 1020,0 hPa 0,0 l/m 0 min 0 min 56 W/m 19,3 km/h (3 Bft) 100,00 %
05.02.2022 16:22 7,3 C 6,7 C 3,3 C 73 % 1019,9 hPa 0,0 l/m 0 min 0 min 55 W/m 29,0 km/h (5 Bft) 100,00 %
05.02.2022 16:24 7,3 C 6,7 C 3,3 C 72 % 1019,9 hPa 0,0 l/m 0 min 0 min 56 W/m 29,0 km/h (5 Bft) 100,00 %
05.02.2022 16:26 7,3 C 6,7 C 3,3 C 72 % 1019,9 hPa 0,0 l/m 0 min 0 min 56 W/m 19,3 km/h (3 Bft) 100,00 %
05.02.2022 16:28 7,3 C 6,7 C 3,3 C 73 % 1019,9 hPa 0,0 l/m 0 min 0 min 58 W/m 16,1 km/h (3 Bft) 100,00 %
05.02.2022 16:30 7,3 C 6,7 C 3,3 C 72 % 1019,8 hPa 0,0 l/m 0 min 0 min 56 W/m 19,3 km/h (3 Bft) 100,00 %
05.02.2022 16:32 7,3 C 6,7 C 3,3 C 73 % 1019,9 hPa 0,0 l/m 0 min 0 min 53 W/m 22,5 km/h (4 Bft) 95,65 %
05.02.2022 16:34 7,3 C 6,7 C 3,3 C 73 % 1019,8 hPa 0,0 l/m 0 min 0 min 49 W/m 16,1 km/h (3 Bft) 100,00 %
05.02.2022 16:36 7,3 C 6,7 C 3,3 C 73 % 1019,8 hPa 0,0 l/m 0 min 0 min 45 W/m 32,2 km/h (5 Bft) 100,00 %
05.02.2022 16:38 7,3 C 6,7 C 3,3 C 73 % 1019,8 hPa 0,0 l/m 0 min 0 min 44 W/m 19,3 km/h (3 Bft) 97,87 %
05.02.2022 16:40 7,3 C 6,7 C 3,3 C 73 % 1019,8 hPa 0,0 l/m 0 min 0 min 47 W/m 29,0 km/h (5 Bft) 100,00 %
05.02.2022 16:42 7,3 C 6,7 C 3,3 C 74 % 1019,8 hPa 0,0 l/m 0 min 0 min 50 W/m 19,3 km/h (3 Bft) 100,00 %
05.02.2022 16:44 7,3 C 6,7 C 3,3 C 74 % 1019,8 hPa 0,0 l/m 2 min 0 min 53 W/m 16,1 km/h (3 Bft) 100,00 %
05.02.2022 16:46 7,2 C 6,7 C 3,3 C 74 % 1019,8 hPa 0,0 l/m 2 min 0 min 51 W/m 19,3 km/h (3 Bft) 100,00 %
05.02.2022 16:48 7,2 C 6,7 C 3,3 C 74 % 1019,7 hPa 0,0 l/m 2 min 0 min 48 W/m 16,1 km/h (3 Bft) 100,00 %
05.02.2022 16:50 7,2 C 6,7 C 3,3 C 74 % 1019,8 hPa 0,0 l/m 2 min 0 min 46 W/m 19,3 km/h (3 Bft) 97,87 %
05.02.2022 16:52 7,2 C 6,7 C 3,3 C 74 % 1019,7 hPa 0,0 l/m 2 min 0 min 47 W/m 19,3 km/h (3 Bft) 95,74 %
05.02.2022 16:54 7,2 C 6,7 C 3,3 C 74 % 1019,7 hPa 0,0 l/m 2 min 0 min 43 W/m 22,5 km/h (4 Bft) 95,74 %
05.02.2022 16:56 7,2 C 6,7 C 3,3 C 74 % 1019,8 hPa 0,0 l/m 2 min 0 min 41 W/m 22,5 km/h (4 Bft) 97,83 %
05.02.2022 16:58 7,2 C 6,7 C 3,3 C 74 % 1019,7 hPa 0,0 l/m 2 min 0 min 40 W/m 25,7 km/h (4 Bft) 97,87 %
05.02.2022 17:00 7,2 C 6,7 C 3,3 C 74 % 1019,7 hPa 0,0 l/m 2 min 0 min 38 W/m 19,3 km/h (3 Bft) 97,87 %
05.02.2022 17:02 7,2 C 6,7 C 3,3 C 74 % 1019,7 hPa 0,0 l/m 2 min 0 min 30 W/m 25,7 km/h (4 Bft) 97,87 %
05.02.2022 17:04 7,2 C 6,7 C 3,3 C 74 % 1019,6 hPa 0,0 l/m 0 min 0 min 26 W/m 22,5 km/h (4 Bft) 95,74 %
05.02.2022 17:06 7,2 C 6,7 C 3,3 C 74 % 1019,6 hPa 0,0 l/m 2 min 0 min 25 W/m 25,7 km/h (4 Bft) 97,87 %
05.02.2022 17:08 7,2 C 6,7 C 2,8 C 74 % 1019,6 hPa 0,0 l/m 2 min 0 min 22 W/m 38,6 km/h (5 Bft) 95,65 %
05.02.2022 17:10 7,1 C 6,7 C 2,8 C 75 % 1019,6 hPa 0,0 l/m 0 min 0 min 19 W/m 16,1 km/h (3 Bft) 95,74 %
05.02.2022 17:12 7,1 C 6,1 C 2,8 C 75 % 1019,6 hPa 0,0 l/m 0 min 0 min 14 W/m 22,5 km/h (4 Bft) 97,87 %
05.02.2022 17:14 7,1 C 6,1 C 2,8 C 75 % 1019,7 hPa 0,0 l/m 0 min 0 min 12 W/m 22,5 km/h (4 Bft) 95,74 %
05.02.2022 17:16 7,1 C 6,1 C 2,8 C 75 % 1019,7 hPa 0,0 l/m 0 min 0 min 11 W/m 19,3 km/h (3 Bft) 97,87 %
05.02.2022 17:18 7,1 C 6,1 C 2,8 C 75 % 1019,6 hPa 0,0 l/m 0 min 0 min 10 W/m 16,1 km/h (3 Bft) 97,87 %
05.02.2022 17:20 7,0 C 6,1 C 2,8 C 75 % 1019,6 hPa 0,0 l/m 0 min 0 min 10 W/m 25,7 km/h (4 Bft) 97,83 %
05.02.2022 17:22 7,0 C 6,1 C 2,8 C 75 % 1019,6 hPa 0,0 l/m 0 min 0 min 7 W/m 22,5 km/h (4 Bft) 93,62 %
05.02.2022 17:24 7,0 C 6,1 C 2,8 C 75 % 1019,5 hPa 0,0 l/m 0 min 0 min 6 W/m 19,3 km/h (3 Bft) 93,62 %
05.02.2022 17:26 7,0 C 6,1 C 2,8 C 75 % 1019,6 hPa 0,0 l/m 0 min 0 min 5 W/m 19,3 km/h (3 Bft) 95,74 %
05.02.2022 17:28 6,9 C 6,1 C 2,8 C 76 % 1019,6 hPa 0,0 l/m 0 min 0 min 1 W/m 19,3 km/h (3 Bft) 93,62 %
05.02.2022 17:30 6,9 C 6,1 C 2,8 C 75 % 1019,5 hPa 0,0 l/m 0 min 0 min 0 W/m 25,7 km/h (4 Bft) 97,87 %
05.02.2022 17:32 6,9 C 6,1 C 2,8 C 75 % 1019,5 hPa 0,0 l/m 0 min 0 min 0 W/m 25,7 km/h (4 Bft) 95,65 %
05.02.2022 17:34 6,9 C 6,1 C 2,8 C 75 % 1019,4 hPa 0,0 l/m 0 min 0 min 0 W/m 25,7 km/h (4 Bft) 95,74 %
05.02.2022 17:36 6,9 C 6,1 C 2,8 C 75 % 1019,5 hPa 0,0 l/m 0 min 0 min 0 W/m 32,2 km/h (5 Bft) 93,62 %
05.02.2022 17:38 6,9 C 6,1 C 2,8 C 75 % 1019,3 hPa 0,0 l/m 0 min 0 min 0 W/m 35,4 km/h (5 Bft) 95,74 %
05.02.2022 17:40 6,9 C 6,1 C 2,8 C 75 % 1019,3 hPa 0,0 l/m 0 min 0 min 0 W/m 29,0 km/h (5 Bft) 93,62 %
05.02.2022 17:42 6,9 C 6,1 C 2,8 C 75 % 1019,3 hPa 0,0 l/m 0 min 0 min 0 W/m 25,7 km/h (4 Bft) 97,87 %
05.02.2022 17:44 6,9 C 6,1 C 2,8 C 75 % 1019,3 hPa 0,0 l/m 0 min 0 min 0 W/m 25,7 km/h (4 Bft) 95,65 %
05.02.2022 17:46 6,8 C 6,1 C 2,8 C 75 % 1019,3 hPa 0,0 l/m 0 min 0 min 0 W/m 29,0 km/h (5 Bft) 93,62 %
05.02.2022 17:48 6,8 C 6,1 C 2,8 C 75 % 1019,3 hPa 0,0 l/m 0 min 0 min 0 W/m 35,4 km/h (5 Bft) 97,87 %
05.02.2022 17:50 6,8 C 6,1 C 2,8 C 75 % 1019,3 hPa 0,0 l/m 0 min 0 min 0 W/m 19,3 km/h (3 Bft) 97,87 %
05.02.2022 17:52 6,8 C 6,1 C 2,8 C 76 % 1019,3 hPa 0,0 l/m 0 min 0 min 0 W/m 29,0 km/h (5 Bft) 97,87 %
05.02.2022 17:54 6,8 C 6,1 C 2,8 C 76 % 1019,3 hPa 0,0 l/m 0 min 0 min 0 W/m 35,4 km/h (5 Bft) 97,87 %
05.02.2022 17:56 6,7 C 6,1 C 2,8 C 76 % 1019,3 hPa 0,0 l/m 0 min 0 min 0 W/m 32,2 km/h (5 Bft) 100,00 %
05.02.2022 17:58 6,7 C 6,1 C 2,2 C 76 % 1019,3 hPa 0,0 l/m 0 min 0 min 0 W/m 22,5 km/h (4 Bft) 100,00 %
05.02.2022 18:00 6,7 C 6,1 C 2,2 C 76 % 1019,2 hPa 0,0 l/m 0 min 0 min 0 W/m 38,6 km/h (5 Bft) 97,87 %
05.02.2022 18:02 6,7 C 6,1 C 2,2 C 76 % 1019,2 hPa 0,0 l/m 0 min 0 min 0 W/m 32,2 km/h (5 Bft) 97,87 %
05.02.2022 18:04 6,7 C 5,6 C 2,2 C 76 % 1019,2 hPa 0,0 l/m 0 min 0 min 0 W/m 22,5 km/h (4 Bft) 97,87 %
05.02.2022 18:08 6,6 C 5,6 C 2,2 C 76 % 1019,1 hPa 0,0 l/m 0 min 0 min 0 W/m 35,4 km/h (5 Bft) 96,77 %
05.02.2022 18:10 6,6 C 5,6 C 2,2 C 76 % 1019,2 hPa 0,0 l/m 0 min 0 min 0 W/m 32,2 km/h (5 Bft) 97,87 %
05.02.2022 18:12 6,6 C 5,6 C 2,2 C 76 % 1019,2 hPa 0,0 l/m 0 min 0 min 0 W/m 25,7 km/h (4 Bft) 97,87 %
05.02.2022 18:14 6,6 C 5,6 C 2,2 C 76 % 1019,1 hPa 0,0 l/m 0 min 0 min 0 W/m 22,5 km/h (4 Bft) 95,74 %
05.02.2022 18:16 6,6 C 5,6 C 2,2 C 76 % 1019,1 hPa 0,0 l/m 0 min 0 min 0 W/m 19,3 km/h (3 Bft) 97,87 %
05.02.2022 18:18 6,5 C 5,6 C 2,2 C 76 % 1019,1 hPa 0,0 l/m 0 min 0 min 0 W/m 25,7 km/h (4 Bft) 95,74 %
05.02.2022 18:20 6,5 C 5,6 C 2,2 C 76 % 1019,0 hPa 0,0 l/m 0 min 0 min 0 W/m 38,6 km/h (5 Bft) 97,83 %
05.02.2022 18:22 6,5 C 5,6 C 2,2 C 76 % 1018,9 hPa 0,0 l/m 0 min 0 min 0 W/m 38,6 km/h (5 Bft) 95,74 %
05.02.2022 18:24 6,6 C 5,6 C 2,2 C 76 % 1018,8 hPa 0,0 l/m 0 min 0 min 0 W/m 19,3 km/h (3 Bft) 97,87 %
05.02.2022 18:26 6,5 C 5,6 C 2,2 C 76 % 1018,8 hPa 0,0 l/m 0 min 0 min 0 W/m 29,0 km/h (5 Bft) 97,87 %
05.02.2022 18:28 6,5 C 5,6 C 2,2 C 76 % 1018,8 hPa 0,0 l/m 0 min 0 min 0 W/m 25,7 km/h (4 Bft) 97,87 %
05.02.2022 18:30 6,5 C 5,6 C 2,2 C 76 % 1018,9 hPa 0,0 l/m 0 min 0 min 0 W/m 29,0 km/h (5 Bft) 97,87 %
05.02.2022 18:32 6,5 C 5,6 C 2,2 C 76 % 1018,9 hPa 0,0 l/m 0 min 0 min 0 W/m 32,2 km/h (5 Bft) 97,83 %
05.02.2022 18:34 6,5 C 5,6 C 2,2 C 76 % 1019,0 hPa 0,0 l/m 0 min 0 min 0 W/m 32,2 km/h (5 Bft) 97,87 %
05.02.2022 18:36 6,5 C 5,6 C 2,2 C 76 % 1019,0 hPa 0,0 l/m 0 min 0 min 0 W/m 25,7 km/h (4 Bft) 97,87 %
05.02.2022 18:38 6,5 C 6,1 C 2,2 C 76 % 1018,9 hPa 0,0 l/m 0 min 0 min 0 W/m 29,0 km/h (5 Bft) 97,87 %
05.02.2022 18:40 6,6 C 6,1 C 2,8 C 76 % 1019,0 hPa 0,0 l/m 0 min 0 min 0 W/m 32,2 km/h (5 Bft) 97,87 %
05.02.2022 18:42 6,6 C 6,1 C 2,8 C 76 % 1019,0 hPa 0,0 l/m 0 min 0 min 0 W/m 35,4 km/h (5 Bft) 95,65 %
05.02.2022 18:44 6,7 C 6,1 C 2,8 C 76 % 1018,8 hPa 0,0 l/m 0 min 0 min 0 W/m 25,7 km/h (4 Bft) 100,00 %
05.02.2022 18:46 6,7 C 6,1 C 2,8 C 76 % 1018,8 hPa 0,0 l/m 0 min 0 min 0 W/m 38,6 km/h (5 Bft) 100,00 %
05.02.2022 18:48 6,7 C 6,1 C 2,8 C 76 % 1018,8 hPa 0,0 l/m 0 min 0 min 0 W/m 41,8 km/h (6 Bft) 100,00 %
05.02.2022 18:50 6,7 C 6,1 C 2,8 C 76 % 1018,8 hPa 0,0 l/m 0 min 0 min 0 W/m 25,7 km/h (4 Bft) 100,00 %
05.02.2022 18:52 6,8 C 6,1 C 2,8 C 76 % 1018,7 hPa 0,0 l/m 0 min 0 min 0 W/m 35,4 km/h (5 Bft) 100,00 %
05.02.2022 18:54 6,8 C 6,1 C 2,8 C 76 % 1018,7 hPa 0,0 l/m 0 min 0 min 0 W/m 29,0 km/h (5 Bft) 97,87 %
05.02.2022 18:56 6,8 C 6,1 C 2,8 C 76 % 1018,7 hPa 0,0 l/m 0 min 0 min 0 W/m 38,6 km/h (5 Bft) 100,00 %
05.02.2022 18:58 6,8 C 6,1 C 2,8 C 76 % 1018,7 hPa 0,0 l/m 0 min 0 min 0 W/m 29,0 km/h (5 Bft) 100,00 %
05.02.2022 19:00 6,8 C 6,1 C 2,8 C 76 % 1018,6 hPa 0,0 l/m 0 min 0 min 0 W/m 29,0 km/h (5 Bft) 100,00 %
05.02.2022 19:02 6,8 C 6,1 C 2,8 C 76 % 1018,6 hPa 0,0 l/m 0 min 0 min 0 W/m 41,8 km/h (6 Bft) 100,00 %
05.02.2022 19:04 6,8 C 6,1 C 2,8 C 76 % 1018,6 hPa 0,0 l/m 0 min 0 min 0 W/m 29,0 km/h (5 Bft) 100,00 %
05.02.2022 19:06 6,8 C 6,1 C 2,8 C 76 % 1018,5 hPa 0,0 l/m 0 min 0 min 0 W/m 32,2 km/h (5 Bft) 100,00 %
05.02.2022 19:08 6,8 C 6,1 C 2,8 C 76 % 1018,5 hPa 0,0 l/m 0 min 0 min 0 W/m 35,4 km/h (5 Bft) 97,87 %
05.02.2022 19:10 6,8 C 6,1 C 2,8 C 76 % 1018,6 hPa 0,0 l/m 0 min 0 min 0 W/m 32,2 km/h (5 Bft) 100,00 %
05.02.2022 19:12 6,8 C 6,1 C 2,8 C 76 % 1018,5 hPa 0,0 l/m 0 min 0 min 0 W/m 32,2 km/h (5 Bft) 100,00 %
05.02.2022 19:14 6,8 C 6,1 C 2,8 C 76 % 1018,5 hPa 0,0 l/m 0 min 0 min 0 W/m 29,0 km/h (5 Bft) 100,00 %
05.02.2022 19:16 6,8 C 6,1 C 2,8 C 76 % 1018,5 hPa 0,0 l/m 0 min 0 min 0 W/m 41,8 km/h (6 Bft) 97,87 %
05.02.2022 19:18 6,9 C 6,1 C 2,8 C 76 % 1018,4 hPa 0,0 l/m 0 min 0 min 0 W/m 35,4 km/h (5 Bft) 97,83 %
05.02.2022 19:20 6,9 C 6,1 C 2,8 C 75 % 1018,5 hPa 0,0 l/m 0 min 0 min 0 W/m 32,2 km/h (5 Bft) 97,87 %
05.02.2022 19:22 6,9 C 6,1 C 2,8 C 76 % 1018,4 hPa 0,0 l/m 0 min 0 min 0 W/m 25,7 km/h (4 Bft) 97,87 %
05.02.2022 19:24 6,9 C 6,1 C 2,8 C 75 % 1018,4 hPa 0,0 l/m 0 min 0 min 0 W/m 45,1 km/h (6 Bft) 97,87 %
05.02.2022 19:26 6,9 C 6,1 C 2,8 C 76 % 1018,4 hPa 0,0 l/m 0 min 0 min 0 W/m 29,0 km/h (5 Bft) 97,87 %
05.02.2022 19:28 6,9 C 6,1 C 2,8 C 76 % 1018,4 hPa 0,0 l/m 0 min 0 min 0 W/m 48,3 km/h (6 Bft) 97,87 %
05.02.2022 19:30 6,9 C 6,1 C 2,8 C 76 % 1018,2 hPa 0,0 l/m 0 min 0 min 0 W/m 35,4 km/h (5 Bft) 97,83 %
05.02.2022 19:32 6,9 C 6,1 C 2,8 C 76 % 1018,2 hPa 0,0 l/m 0 min 0 min 0 W/m 29,0 km/h (5 Bft) 97,87 %
05.02.2022 19:34 6,9 C 6,1 C 2,8 C 76 % 1018,1 hPa 0,0 l/m 0 min 0 min 0 W/m 38,6 km/h (5 Bft) 97,87 %
05.02.2022 19:36 6,9 C 6,1 C 2,8 C 76 % 1018,2 hPa 0,0 l/m 0 min 0 min 0 W/m 29,0 km/h (5 Bft) 97,87 %
05.02.2022 19:38 6,9 C 6,1 C 2,8 C 76 % 1018,2 hPa 0,0 l/m 0 min 0 min 0 W/m 32,2 km/h (5 Bft) 95,74 %
05.02.2022 19:40 6,9 C 6,1 C 2,8 C 76 % 1018,1 hPa 0,0 l/m 0 min 0 min 0 W/m 35,4 km/h (5 Bft) 97,87 %
05.02.2022 19:42 6,9 C 6,1 C 2,8 C 76 % 1018,3 hPa 0,0 l/m 0 min 0 min 0 W/m 41,8 km/h (6 Bft) 95,65 %
05.02.2022 19:44 6,9 C 6,1 C 2,8 C 76 % 1018,2 hPa 0,0 l/m 0 min 0 min 0 W/m 32,2 km/h (5 Bft) 97,87 %
05.02.2022 19:46 6,9 C 6,1 C 2,8 C 76 % 1018,2 hPa 0,0 l/m 0 min 0 min 0 W/m 35,4 km/h (5 Bft) 93,62 %
05.02.2022 19:48 6,9 C 6,1 C 2,8 C 76 % 1018,1 hPa 0,0 l/m 0 min 0 min 0 W/m 35,4 km/h (5 Bft) 93,62 %
05.02.2022 19:50 6,9 C 6,1 C 2,8 C 76 % 1018,2 hPa 0,0 l/m 0 min 0 min 0 W/m 29,0 km/h (5 Bft) 95,74 %
05.02.2022 19:52 6,8 C 6,1 C 2,8 C 76 % 1018,2 hPa 0,0 l/m 0 min 0 min 0 W/m 29,0 km/h (5 Bft) 97,87 %
05.02.2022 19:54 6,8 C 6,1 C 2,8 C 76 % 1018,3 hPa 0,0 l/m 0 min 0 min 0 W/m 32,2 km/h (5 Bft) 97,83 %
05.02.2022 19:56 6,8 C 6,1 C 2,8 C 76 % 1018,2 hPa 0,0 l/m 0 min 0 min 0 W/m 38,6 km/h (5 Bft) 97,87 %
05.02.2022 19:58 6,8 C 6,1 C 2,8 C 76 % 1018,1 hPa 0,0 l/m 0 min 0 min 0 W/m 35,4 km/h (5 Bft) 97,87 %
05.02.2022 20:00 6,8 C 6,1 C 2,8 C 76 % 1018,1 hPa 0,0 l/m 0 min 0 min 0 W/m 25,7 km/h (4 Bft) 97,87 %
05.02.2022 20:02 6,8 C 6,1 C 2,8 C 76 % 1018,1 hPa 0,0 l/m 0 min 0 min 0 W/m 35,4 km/h (5 Bft) 95,74 %
05.02.2022 20:04 6,8 C 6,1 C 2,8 C 76 % 1018,0 hPa 0,0 l/m 0 min 0 min 0 W/m 19,3 km/h (3 Bft) 95,74 %
05.02.2022 20:06 6,9 C 6,1 C 2,8 C 76 % 1017,9 hPa 0,0 l/m 0 min 0 min 0 W/m 35,4 km/h (5 Bft) 97,83 %
05.02.2022 20:08 6,8 C 6,1 C 2,8 C 76 % 1017,9 hPa 0,0 l/m 0 min 0 min 0 W/m 25,7 km/h (4 Bft) 55,32 %
05.02.2022 20:10 6,8 C 6,1 C 2,8 C 77 % 1018,0 hPa 0,0 l/m 0 min 0 min 0 W/m 35,4 km/h (5 Bft) 97,87 %
05.02.2022 20:12 6,9 C 6,1 C 2,8 C 77 % 1017,8 hPa 0,0 l/m 0 min 0 min 0 W/m 22,5 km/h (4 Bft) 97,87 %
05.02.2022 20:14 6,9 C 6,1 C 2,8 C 77 % 1017,9 hPa 0,0 l/m 0 min 0 min 0 W/m 32,2 km/h (5 Bft) 97,87 %
05.02.2022 20:16 6,9 C 6,1 C 2,8 C 77 % 1017,8 hPa 0,0 l/m 0 min 0 min 0 W/m 45,1 km/h (6 Bft) 97,87 %
05.02.2022 20:18 6,9 C 6,1 C 2,8 C 77 % 1017,8 hPa 0,0 l/m 0 min 0 min 0 W/m 35,4 km/h (5 Bft) 97,83 %
05.02.2022 20:20 6,9 C 6,1 C 2,8 C 77 % 1017,8 hPa 0,0 l/m 0 min 0 min 0 W/m 32,2 km/h (5 Bft) 97,87 %
05.02.2022 20:22 6,9 C 6,1 C 2,8 C 77 % 1017,8 hPa 0,0 l/m 0 min 0 min 0 W/m 38,6 km/h (5 Bft) 93,62 %
05.02.2022 20:24 6,9 C 6,1 C 2,8 C 77 % 1017,8 hPa 0,0 l/m 0 min 0 min 0 W/m 35,4 km/h (5 Bft) 97,87 %
05.02.2022 20:26 6,9 C 6,1 C 2,8 C 77 % 1017,6 hPa 0,0 l/m 0 min 0 min 0 W/m 25,7 km/h (4 Bft) 97,87 %
05.02.2022 20:28 6,9 C 6,1 C 2,8 C 77 % 1017,7 hPa 0,0 l/m 0 min 0 min 0 W/m 25,7 km/h (4 Bft) 97,87 %
05.02.2022 20:30 6,9 C 6,1 C 2,8 C 77 % 1017,6 hPa 0,0 l/m 0 min 0 min 0 W/m 25,7 km/h (4 Bft) 97,83 %
05.02.2022 20:32 6,9 C 6,1 C 2,8 C 77 % 1017,7 hPa 0,0 l/m 0 min 0 min 0 W/m 41,8 km/h (6 Bft) 95,74 %
05.02.2022 20:34 7,0 C 6,1 C 2,8 C 77 % 1017,6 hPa 0,0 l/m 0 min 0 min 0 W/m 35,4 km/h (5 Bft) 97,87 %
05.02.2022 20:36 7,0 C 6,1 C 2,8 C 77 % 1017,5 hPa 0,0 l/m 0 min 0 min 0 W/m 32,2 km/h (5 Bft) 95,74 %
05.02.2022 20:38 7,0 C 6,1 C 2,8 C 77 % 1017,5 hPa 0,0 l/m 0 min 0 min 0 W/m 38,6 km/h (5 Bft) 97,87 %
05.02.2022 20:40 7,0 C 6,1 C 2,8 C 77 % 1017,4 hPa 0,0 l/m 0 min 0 min 0 W/m 25,7 km/h (4 Bft) 97,83 %
05.02.2022 20:42 7,0 C 6,1 C 2,8 C 77 % 1017,4 hPa 0,0 l/m 0 min 0 min 0 W/m 32,2 km/h (5 Bft) 97,87 %
05.02.2022 20:44 7,1 C 6,7 C 2,8 C 77 % 1017,4 hPa 0,0 l/m 0 min 0 min 0 W/m 32,2 km/h (5 Bft) 97,87 %
05.02.2022 20:46 7,1 C 6,7 C 2,8 C 77 % 1017,3 hPa 0,0 l/m 0 min 0 min 0 W/m 29,0 km/h (5 Bft) 95,74 %
05.02.2022 20:48 7,1 C 6,1 C 2,8 C 77 % 1017,3 hPa 0,0 l/m 0 min 0 min 0 W/m 29,0 km/h (5 Bft) 97,87 %
05.02.2022 20:50 7,1 C 6,7 C 2,8 C 77 % 1017,3 hPa 0,0 l/m 0 min 0 min 0 W/m 41,8 km/h (6 Bft) 97,87 %
05.02.2022 20:52 7,1 C 6,1 C 2,8 C 77 % 1017,3 hPa 0,0 l/m 0 min 0 min 0 W/m 32,2 km/h (5 Bft) 97,87 %
05.02.2022 20:54 7,1 C 6,1 C 2,8 C 77 % 1017,3 hPa 0,0 l/m 0 min 0 min 0 W/m 32,2 km/h (5 Bft) 95,65 %
05.02.2022 20:56 7,1 C 6,7 C 2,8 C 77 % 1017,3 hPa 0,0 l/m 0 min 0 min 0 W/m 29,0 km/h (5 Bft) 97,87 %
05.02.2022 20:58 7,1 C 6,7 C 2,8 C 77 % 1017,3 hPa 0,0 l/m 0 min 0 min 0 W/m 25,7 km/h (4 Bft) 97,87 %
05.02.2022 21:00 7,1 C 6,1 C 2,8 C 77 % 1017,4 hPa 0,0 l/m 0 min 0 min 0 W/m 19,3 km/h (3 Bft) 97,87 %
05.02.2022 21:02 7,1 C 6,7 C 2,8 C 77 % 1017,4 hPa 0,0 l/m 0 min 0 min 0 W/m 51,5 km/h (7 Bft) 93,62 %
05.02.2022 21:04 7,2 C 6,7 C 2,8 C 77 % 1017,3 hPa 0,0 l/m 0 min 0 min 0 W/m 41,8 km/h (6 Bft) 97,83 %
05.02.2022 21:06 7,2 C 6,7 C 2,8 C 77 % 1017,3 hPa 0,0 l/m 0 min 0 min 0 W/m 32,2 km/h (5 Bft) 95,74 %
05.02.2022 21:08 7,2 C 6,7 C 2,8 C 78 % 1017,3 hPa 0,0 l/m 0 min 0 min 0 W/m 32,2 km/h (5 Bft) 97,87 %
05.02.2022 21:10 7,2 C 6,7 C 2,8 C 78 % 1017,3 hPa 0,0 l/m 0 min 0 min 0 W/m 25,7 km/h (4 Bft) 95,74 %
05.02.2022 21:12 7,2 C 6,7 C 2,8 C 78 % 1017,2 hPa 0,0 l/m 0 min 0 min 0 W/m 45,1 km/h (6 Bft) 97,87 %
05.02.2022 21:14 7,2 C 6,7 C 2,8 C 78 % 1017,2 hPa 0,0 l/m 0 min 0 min 0 W/m 38,6 km/h (5 Bft) 95,74 %
05.02.2022 21:16 7,2 C 6,7 C 2,8 C 78 % 1017,1 hPa 0,0 l/m 0 min 0 min 0 W/m 38,6 km/h (5 Bft) 95,74 %
05.02.2022 21:18 7,2 C 6,7 C 2,8 C 78 % 1017,1 hPa 0,0 l/m 0 min 0 min 0 W/m 35,4 km/h (5 Bft) 95,65 %
05.02.2022 21:20 7,2 C 6,7 C 2,8 C 78 % 1017,1 hPa 0,0 l/m 0 min 0 min 0 W/m 32,2 km/h (5 Bft) 95,74 %
05.02.2022 21:22 7,2 C 6,7 C 2,8 C 78 % 1017,1 hPa 0,0 l/m 0 min 0 min 0 W/m 48,3 km/h (6 Bft) 95,74 %
05.02.2022 21:24 7,2 C 6,7 C 2,8 C 78 % 1017,1 hPa 0,0 l/m 0 min 0 min 0 W/m 25,7 km/h (4 Bft) 97,87 %
05.02.2022 21:26 7,2 C 6,7 C 2,8 C 78 % 1017,0 hPa 0,0 l/m 0 min 0 min 0 W/m 32,2 km/h (5 Bft) 95,74 %
05.02.2022 21:28 7,2 C 6,7 C 2,8 C 78 % 1017,0 hPa 0,0 l/m 0 min 0 min 0 W/m 25,7 km/h (4 Bft) 38,24 %
05.02.2022 21:30 7,2 C 6,7 C 2,8 C 78 % 1016,9 hPa 0,0 l/m 0 min 0 min 0 W/m 41,8 km/h (6 Bft) 97,87 %
05.02.2022 21:32 7,2 C 6,7 C 2,8 C 78 % 1017,0 hPa 0,0 l/m 0 min 0 min 0 W/m 41,8 km/h (6 Bft) 97,87 %
05.02.2022 21:34 7,2 C 6,7 C 2,8 C 78 % 1016,9 hPa 0,0 l/m 0 min 0 min 0 W/m 29,0 km/h (5 Bft) 97,87 %
05.02.2022 21:36 7,2 C 6,7 C 2,8 C 78 % 1016,7 hPa 0,0 l/m 0 min 0 min 0 W/m 48,3 km/h (6 Bft) 97,87 %
05.02.2022 21:38 7,2 C 6,7 C 2,8 C 78 % 1016,7 hPa 0,0 l/m 0 min 0 min 0 W/m 38,6 km/h (5 Bft) 97,87 %
05.02.2022 21:40 7,2 C 6,7 C 2,8 C 78 % 1016,8 hPa 0,0 l/m 0 min 0 min 0 W/m 38,6 km/h (5 Bft) 95,65 %
05.02.2022 21:42 7,2 C 6,7 C 2,8 C 78 % 1016,7 hPa 0,0 l/m 0 min 0 min 0 W/m 48,3 km/h (6 Bft) 97,87 %
05.02.2022 21:44 7,2 C 6,7 C 2,8 C 78 % 1016,7 hPa 0,0 l/m 0 min 0 min 0 W/m 38,6 km/h (5 Bft) 97,87 %
05.02.2022 21:46 7,2 C 6,7 C 2,8 C 78 % 1016,8 hPa 0,0 l/m 0 min 0 min 0 W/m 38,6 km/h (5 Bft) 97,87 %
05.02.2022 21:48 7,3 C 6,7 C 2,8 C 78 % 1016,6 hPa 0,0 l/m 0 min 0 min 0 W/m 32,2 km/h (5 Bft) 100,00 %
05.02.2022 21:50 7,3 C 6,7 C 2,8 C 78 % 1016,6 hPa 0,0 l/m 0 min 0 min 0 W/m 35,4 km/h (5 Bft) 100,00 %
05.02.2022 21:52 7,3 C 6,7 C 2,8 C 78 % 1016,6 hPa 0,0 l/m 0 min 0 min 0 W/m 35,4 km/h (5 Bft) 97,83 %
05.02.2022 21:54 7,3 C 6,7 C 3,3 C 79 % 1016,6 hPa 0,0 l/m 0 min 0 min 0 W/m 35,4 km/h (5 Bft) 100,00 %
05.02.2022 21:56 7,3 C 6,7 C 3,3 C 78 % 1016,6 hPa 0,0 l/m 0 min 0 min 0 W/m 32,2 km/h (5 Bft) 100,00 %
05.02.2022 21:58 7,3 C 6,7 C 3,3 C 78 % 1016,5 hPa 0,0 l/m 0 min 0 min 0 W/m 57,9 km/h (7 Bft) 100,00 %
05.02.2022 22:00 7,3 C 6,7 C 3,3 C 78 % 1016,4 hPa 0,0 l/m 0 min 0 min 0 W/m 22,5 km/h (4 Bft) 100,00 %
05.02.2022 22:02 7,3 C 6,7 C 3,3 C 78 % 1016,4 hPa 0,0 l/m 0 min 0 min 0 W/m 45,1 km/h (6 Bft) 97,87 %
05.02.2022 22:04 7,3 C 6,7 C 3,3 C 78 % 1016,5 hPa 0,0 l/m 0 min 0 min 0 W/m 32,2 km/h (5 Bft) 97,83 %
05.02.2022 22:06 7,4 C 6,7 C 3,3 C 78 % 1016,4 hPa 0,0 l/m 0 min 0 min 0 W/m 22,5 km/h (4 Bft) 100,00 %
05.02.2022 22:08 7,3 C 6,7 C 3,3 C 78 % 1016,4 hPa 0,0 l/m 0 min 0 min 0 W/m 38,6 km/h (5 Bft) 100,00 %
05.02.2022 22:10 7,4 C 6,7 C 3,3 C 78 % 1016,4 hPa 0,0 l/m 0 min 0 min 0 W/m 35,4 km/h (5 Bft) 100,00 %
05.02.2022 22:12 7,4 C 6,7 C 3,3 C 78 % 1016,3 hPa 0,0 l/m 0 min 0 min 0 W/m 25,7 km/h (4 Bft) 97,87 %
05.02.2022 22:14 7,4 C 6,7 C 3,3 C 78 % 1016,2 hPa 0,0 l/m 0 min 0 min 0 W/m 35,4 km/h (5 Bft) 100,00 %
05.02.2022 22:16 7,4 C 6,7 C 3,3 C 78 % 1016,4 hPa 0,0 l/m 0 min 0 min 0 W/m 22,5 km/h (4 Bft) 100,00 %
05.02.2022 22:18 7,4 C 6,7 C 3,3 C 78 % 1016,3 hPa 0,0 l/m 0 min 0 min 0 W/m 45,1 km/h (6 Bft) 100,00 %
05.02.2022 22:20 7,4 C 6,7 C 3,3 C 78 % 1016,2 hPa 0,0 l/m 0 min 0 min 0 W/m 35,4 km/h (5 Bft) 100,00 %
05.02.2022 22:22 7,4 C 6,7 C 3,3 C 78 % 1016,3 hPa 0,0 l/m 0 min 0 min 0 W/m 29,0 km/h (5 Bft) 100,00 %
05.02.2022 22:24 7,4 C 6,7 C 3,3 C 78 % 1016,3 hPa 0,0 l/m 0 min 0 min 0 W/m 35,4 km/h (5 Bft) 100,00 %
05.02.2022 22:26 7,4 C 6,7 C 3,3 C 78 % 1016,4 hPa 0,0 l/m 0 min 0 min 0 W/m 45,1 km/h (6 Bft) 100,00 %
05.02.2022 22:28 7,4 C 6,7 C 3,3 C 78 % 1016,3 hPa 0,0 l/m 0 min 0 min 0 W/m 35,4 km/h (5 Bft) 100,00 %
05.02.2022 22:30 7,4 C 6,7 C 3,3 C 78 % 1016,2 hPa 0,0 l/m 0 min 0 min 0 W/m 22,5 km/h (4 Bft) 100,00 %
05.02.2022 22:32 7,4 C 6,7 C 3,3 C 78 % 1016,1 hPa 0,0 l/m 0 min 0 min 0 W/m 35,4 km/h (5 Bft) 100,00 %
05.02.2022 22:34 7,4 C 6,7 C 3,3 C 78 % 1016,1 hPa 0,0 l/m 0 min 0 min 0 W/m 45,1 km/h (6 Bft) 100,00 %
05.02.2022 22:36 7,4 C 6,7 C 3,3 C 78 % 1016,2 hPa 0,0 l/m 0 min 0 min 0 W/m 35,4 km/h (5 Bft) 97,87 %
05.02.2022 22:38 7,4 C 6,7 C 3,3 C 78 % 1016,1 hPa 0,0 l/m 0 min 0 min 0 W/m 25,7 km/h (4 Bft) 100,00 %
05.02.2022 22:40 7,4 C 6,7 C 3,3 C 78 % 1016,0 hPa 0,0 l/m 0 min 0 min 0 W/m 38,6 km/h (5 Bft) 95,74 %
05.02.2022 22:42 7,4 C 6,7 C 3,3 C 79 % 1016,0 hPa 0,0 l/m 0 min 0 min 0 W/m 41,8 km/h (6 Bft) 97,87 %
05.02.2022 22:44 7,4 C 6,7 C 3,3 C 79 % 1015,9 hPa 0,0 l/m 0 min 0 min 0 W/m 22,5 km/h (4 Bft) 95,74 %
05.02.2022 22:46 7,4 C 6,7 C 3,3 C 79 % 1015,9 hPa 0,0 l/m 0 min 0 min 0 W/m 38,6 km/h (5 Bft) 97,83 %
05.02.2022 22:48 7,5 C 6,7 C 3,3 C 79 % 1016,1 hPa 0,0 l/m 0 min 0 min 0 W/m 32,2 km/h (5 Bft) 97,87 %
05.02.2022 22:50 7,5 C 6,7 C 3,3 C 79 % 1015,9 hPa 0,0 l/m 0 min 0 min 0 W/m 19,3 km/h (3 Bft) 74,47 %
05.02.2022 22:52 7,5 C 6,7 C 3,3 C 79 % 1015,8 hPa 0,0 l/m 0 min 0 min 0 W/m 25,7 km/h (4 Bft) 76,74 %
05.02.2022 22:54 7,5 C 6,7 C 3,3 C 79 % 1015,9 hPa 0,0 l/m 0 min 0 min 0 W/m 48,3 km/h (6 Bft) 97,87 %
05.02.2022 22:56 7,5 C 6,7 C 3,3 C 79 % 1015,9 hPa 0,0 l/m 0 min 0 min 0 W/m 48,3 km/h (6 Bft) 97,87 %
05.02.2022 22:58 7,5 C 6,7 C 3,3 C 79 % 1016,0 hPa 0,0 l/m 0 min 0 min 0 W/m 57,9 km/h (7 Bft) 97,83 %
05.02.2022 23:00 7,6 C 6,7 C 3,3 C 79 % 1015,7 hPa 0,0 l/m 0 min 0 min 0 W/m 25,7 km/h (4 Bft) 97,87 %
05.02.2022 23:02 7,6 C 6,7 C 3,3 C 79 % 1015,8 hPa 0,0 l/m 0 min 0 min 0 W/m 32,2 km/h (5 Bft) 95,74 %
05.02.2022 23:04 7,6 C 6,7 C 3,3 C 79 % 1015,7 hPa 0,0 l/m 0 min 0 min 0 W/m 29,0 km/h (5 Bft) 97,87 %
05.02.2022 23:06 7,6 C 6,7 C 3,3 C 79 % 1015,6 hPa 0,0 l/m 0 min 0 min 0 W/m 29,0 km/h (5 Bft) 97,87 %
05.02.2022 23:08 7,6 C 6,7 C 3,3 C 79 % 1015,6 hPa 0,0 l/m 0 min 0 min 0 W/m 35,4 km/h (5 Bft) 97,87 %
05.02.2022 23:10 7,6 C 6,7 C 3,3 C 79 % 1016,1 hPa 0,0 l/m 0 min 0 min 0 W/m 38,6 km/h (5 Bft) 97,83 %
05.02.2022 23:12 7,6 C 6,7 C 3,3 C 79 % 1015,6 hPa 0,0 l/m 0 min 0 min 0 W/m 41,8 km/h (6 Bft) 95,74 %
05.02.2022 23:14 7,5 C 6,7 C 3,3 C 79 % 1015,6 hPa 0,0 l/m 0 min 0 min 0 W/m 19,3 km/h (3 Bft) 95,74 %
05.02.2022 23:16 7,5 C 6,7 C 3,3 C 79 % 1015,6 hPa 0,0 l/m 0 min 0 min 0 W/m 38,6 km/h (5 Bft) 95,74 %
05.02.2022 23:18 7,5 C 6,7 C 3,3 C 79 % 1015,7 hPa 0,0 l/m 0 min 0 min 0 W/m 35,4 km/h (5 Bft) 92,59 %
05.02.2022 23:20 7,5 C 6,7 C 3,3 C 79 % 1015,7 hPa 0,0 l/m 0 min 0 min 0 W/m 22,5 km/h (4 Bft) 94,00 %
05.02.2022 23:22 7,5 C 6,7 C 3,3 C 79 % 1015,8 hPa 0,0 l/m 0 min 0 min 0 W/m 41,8 km/h (6 Bft) 93,62 %
05.02.2022 23:24 7,5 C 6,7 C 3,3 C 79 % 1015,4 hPa 0,0 l/m 0 min 0 min 0 W/m 25,7 km/h (4 Bft) 93,62 %
05.02.2022 23:26 7,4 C 6,7 C 3,3 C 80 % 1015,6 hPa 0,0 l/m 0 min 0 min 0 W/m 29,0 km/h (5 Bft) 95,65 %
05.02.2022 23:28 7,5 C 6,7 C 3,3 C 80 % 1015,6 hPa 0,0 l/m 0 min 0 min 0 W/m 35,4 km/h (5 Bft) 91,49 %
05.02.2022 23:30 7,5 C 6,7 C 3,3 C 80 % 1015,6 hPa 0,0 l/m 0 min 0 min 0 W/m 25,7 km/h (4 Bft) 95,74 %
05.02.2022 23:32 7,5 C 6,7 C 3,3 C 79 % 1015,5 hPa 0,0 l/m 0 min 0 min 0 W/m 25,7 km/h (4 Bft) 95,74 %
05.02.2022 23:34 7,4 C 6,7 C 3,3 C 79 % 1015,6 hPa 0,0 l/m 0 min 0 min 0 W/m 35,4 km/h (5 Bft) 95,74 %
05.02.2022 23:36 7,4 C 6,7 C 3,3 C 80 % 1015,5 hPa 0,0 l/m 0 min 0 min 0 W/m 25,7 km/h (4 Bft) 93,62 %
05.02.2022 23:38 7,4 C 6,7 C 3,3 C 80 % 1015,4 hPa 0,0 l/m 0 min 0 min 0 W/m 29,0 km/h (5 Bft) 93,48 %
05.02.2022 23:40 7,4 C 6,7 C 3,3 C 80 % 1015,6 hPa 0,0 l/m 0 min 0 min 0 W/m 32,2 km/h (5 Bft) 95,74 %
05.02.2022 23:42 7,5 C 6,7 C 3,3 C 80 % 1015,3 hPa 0,0 l/m 0 min 0 min 0 W/m 48,3 km/h (6 Bft) 93,62 %
05.02.2022 23:44 7,5 C 6,7 C 3,3 C 80 % 1015,5 hPa 0,0 l/m 0 min 0 min 0 W/m 25,7 km/h (4 Bft) 95,74 %
05.02.2022 23:46 7,5 C 6,7 C 3,3 C 80 % 1015,5 hPa 0,0 l/m 0 min 0 min 0 W/m 29,0 km/h (5 Bft) 97,87 %
05.02.2022 23:48 7,5 C 6,7 C 3,3 C 80 % 1015,4 hPa 0,0 l/m 0 min 0 min 0 W/m 32,2 km/h (5 Bft) 97,87 %
05.02.2022 23:50 7,6 C 6,7 C 3,3 C 80 % 1015,4 hPa 0,0 l/m 0 min 0 min 0 W/m 45,1 km/h (6 Bft) 97,83 %
05.02.2022 23:52 7,6 C 6,7 C 3,3 C 80 % 1015,2 hPa 0,0 l/m 0 min 0 min 0 W/m 41,8 km/h (6 Bft) 95,74 %
05.02.2022 23:54 7,6 C 6,7 C 3,3 C 80 % 1015,2 hPa 0,0 l/m 0 min 0 min 0 W/m 29,0 km/h (5 Bft) 97,87 %
05.02.2022 23:56 7,6 C 6,7 C 3,3 C 80 % 1015,4 hPa 0,0 l/m 0 min 0 min 0 W/m 57,9 km/h (7 Bft) 97,87 %
05.02.2022 23:58 7,6 C 6,7 C 3,3 C 79 % 1014,9 hPa 0,0 l/m 0 min 0 min 0 W/m 57,9 km/h (7 Bft) 97,87 %
_ Min-Zeit 08:12 07:58 00:00 15:30 23:58 - - - - 07:32 21:28
Minimum _ 2,2 C 1,1 C -0,6 C 71 % 1014,9 hPa - - - - 3,2 km/h (1 Bft) 38,24 %
_ Max-Zeit 13:56 13:50 13:50 00:28 11:42 00:00 09:40 00:00 13:46 16:12 00:58
Maximum _ 7,9 C 15,0 C 4,4 C 93 % 1021,8 hPa 0,0 l/m 2 min 0 min 522 W/m 64,4 km/h
S-SW (8 Bft)
100,00 %
Durchschnitt _ 5,2 C 5,3 C 1,8 C 84 % 1019,0 hPa #0,0 l/m #4:36 h #0 min. 168 W/m 21,4 km/h (4 Bft) 96,92 %
© 2022 W. Hausmann